WJA60 CYYC-BIKF
Flight info
| Callsign | WJA60 |
|---|---|
| Flight time | 6h 36m |
| Altitude | 35000 |
| Route | LOMLO Q979 TULOV DCT IMOTA DCT YQD DCT 57N090W DCT DUGNO DCT DUTUM/N0469F370 DCT NALDI/M080F370 DCT AVPUT DCT 66N050W 66N040W 65N030W DCT GOKIK DCT GIRUG GIRUG4N |
| Aircraft | B38M/M-SDE1FGHILORVWXY/HB1 |
Departure
| Time | 2026-05-06 22:57 |
|---|---|
| Airport | Calgary International Airport (CYYC) |
Arrival
| Time | 2026-05-07 05:33 |
|---|---|
| Airport | Keflavik International Airport (BIKF) |
| Time | Latitude | Longitude | Altitude | Speed | Heading |
|---|---|---|---|---|---|
| 2026-05-06 22:44 | 51.12852 | -114.00494 | 3562 ft | 0 kts | 78° |
| 2026-05-06 22:49 | 51.12850 | -114.00520 | 3562 ft | 4 kts | 87° |
| 2026-05-06 22:49 | 51.12852 | -114.00562 | 3562 ft | 4 kts | 104° |
| 2026-05-06 22:49 | 51.12861 | -114.00602 | 3557 ft | 4 kts | 112° |
| 2026-05-06 22:50 | 51.12872 | -114.00634 | 3558 ft | 4 kts | 148° |
| 2026-05-06 22:50 | 51.12895 | -114.00640 | 3560 ft | 4 kts | 184° |
| 2026-05-06 22:50 | 51.12903 | -114.00639 | 3562 ft | 0 kts | 182° |
| 2026-05-06 22:52 | 51.12899 | -114.00639 | 3562 ft | 3 kts | 184° |
| 2026-05-06 22:52 | 51.12843 | -114.00643 | 3560 ft | 14 kts | 185° |
| 2026-05-06 22:52 | 51.12761 | -114.00637 | 3559 ft | 8 kts | 180° |
| 2026-05-06 22:53 | 51.12670 | -114.00635 | 3557 ft | 11 kts | 189° |
| 2026-05-06 22:53 | 51.12615 | -114.00753 | 3562 ft | 19 kts | 270° |
| 2026-05-06 22:53 | 51.12612 | -114.00997 | 3562 ft | 23 kts | 270° |
| 2026-05-06 22:53 | 51.12601 | -114.01277 | 3562 ft | 28 kts | 265° |
| 2026-05-06 22:54 | 51.12599 | -114.01626 | 3562 ft | 32 kts | 274° |
| 2026-05-06 22:54 | 51.12485 | -114.01794 | 3560 ft | 30 kts | 180° |
| 2026-05-06 22:54 | 51.12244 | -114.01789 | 3562 ft | 39 kts | 178° |
| 2026-05-06 22:54 | 51.11987 | -114.01800 | 3563 ft | 33 kts | 180° |
| 2026-05-06 22:55 | 51.11723 | -114.01797 | 3562 ft | 43 kts | 179° |
| 2026-05-06 22:55 | 51.11396 | -114.01784 | 3562 ft | 47 kts | 178° |
| 2026-05-06 22:55 | 51.11173 | -114.01789 | 3560 ft | 19 kts | 182° |
| 2026-05-06 22:55 | 51.11001 | -114.01800 | 3562 ft | 30 kts | 181° |
| 2026-05-06 22:56 | 51.10794 | -114.01795 | 3562 ft | 32 kts | 181° |
| 2026-05-06 22:56 | 51.10591 | -114.01886 | 3559 ft | 32 kts | 256° |
| 2026-05-06 22:56 | 51.10741 | -114.02086 | 3557 ft | 34 kts | 340° |
| 2026-05-06 22:56 | 51.11116 | -114.02139 | 3563 ft | 85 kts | 0° |
| 2026-05-06 22:57 | 51.11916 | -114.02133 | 3557 ft | 143 kts | 358° |
| 2026-05-06 22:57 | 51.13075 | -114.02112 | 3607 ft | 184 kts | 2° |
| 2026-05-06 22:57 | 51.14356 | -114.02109 | 4307 ft | 184 kts | 359° |
| 2026-05-06 22:57 | 51.15683 | -114.01853 | 4788 ft | 199 kts | 31° |
| 2026-05-06 22:58 | 51.16694 | -114.00287 | 4910 ft | 219 kts | 58° |
| 2026-05-06 22:58 | 51.16906 | -113.97963 | 4754 ft | 205 kts | 105° |
| 2026-05-06 22:58 | 51.16405 | -113.95800 | 4893 ft | 204 kts | 106° |
| 2026-05-06 22:58 | 51.15977 | -113.93748 | 5643 ft | 202 kts | 107° |
| 2026-05-06 22:59 | 51.15547 | -113.91502 | 6036 ft | 224 kts | 104° |
| 2026-05-06 22:59 | 51.15115 | -113.88984 | 6407 ft | 245 kts | 103° |
| 2026-05-06 22:59 | 51.14664 | -113.86254 | 6832 ft | 265 kts | 103° |
| 2026-05-06 22:59 | 51.14194 | -113.83316 | 7296 ft | 283 kts | 103° |
| 2026-05-06 23:00 | 51.13703 | -113.80211 | 7935 ft | 292 kts | 103° |
| 2026-05-06 23:00 | 51.13196 | -113.77043 | 8715 ft | 298 kts | 103° |
| 2026-05-06 23:00 | 51.12677 | -113.73797 | 9436 ft | 306 kts | 103° |
| 2026-05-06 23:00 | 51.12142 | -113.70467 | 10113 ft | 314 kts | 103° |
| 2026-05-06 23:01 | 51.11588 | -113.66994 | 10492 ft | 333 kts | 103° |
| 2026-05-06 23:01 | 51.11004 | -113.63323 | 10779 ft | 353 kts | 104° |
| 2026-05-06 23:01 | 51.10394 | -113.59510 | 11035 ft | 372 kts | 104° |
| 2026-05-06 23:01 | 51.09738 | -113.55442 | 11397 ft | 386 kts | 104° |
| 2026-05-06 23:02 | 51.09058 | -113.51272 | 11991 ft | 391 kts | 104° |
| 2026-05-06 23:02 | 51.08363 | -113.47055 | 12693 ft | 395 kts | 104° |
| 2026-05-06 23:02 | 51.07659 | -113.42802 | 13344 ft | 399 kts | 104° |
| 2026-05-06 23:02 | 51.06990 | -113.38503 | 13952 ft | 403 kts | 98° |
| 2026-05-06 23:03 | 51.06704 | -113.34091 | 14503 ft | 406 kts | 94° |
| 2026-05-06 23:03 | 51.06437 | -113.29601 | 15044 ft | 411 kts | 93° |
| 2026-05-06 23:03 | 51.06165 | -113.25055 | 15578 ft | 415 kts | 93° |
| 2026-05-06 23:03 | 51.05867 | -113.20489 | 16096 ft | 419 kts | 94° |
| 2026-05-06 23:04 | 51.05542 | -113.15858 | 16627 ft | 423 kts | 94° |
| 2026-05-06 23:04 | 51.05216 | -113.11191 | 17132 ft | 427 kts | 94° |
| 2026-05-06 23:04 | 51.04885 | -113.06460 | 17646 ft | 431 kts | 94° |
| 2026-05-06 23:04 | 51.04551 | -113.01711 | 18141 ft | 435 kts | 94° |
| 2026-05-06 23:05 | 51.04212 | -112.96915 | 18579 ft | 439 kts | 94° |
| 2026-05-06 23:05 | 51.03868 | -112.92078 | 19032 ft | 442 kts | 94° |
| 2026-05-06 23:05 | 51.03636 | -112.88841 | 19322 ft | 444 kts | 94° |
| 2026-05-06 23:05 | 51.03285 | -112.83955 | 19783 ft | 446 kts | 94° |
| 2026-05-06 23:06 | 51.02931 | -112.79054 | 20226 ft | 450 kts | 94° |
| 2026-05-06 23:06 | 51.02571 | -112.74100 | 20670 ft | 453 kts | 94° |
| 2026-05-06 23:06 | 51.02206 | -112.69113 | 21098 ft | 456 kts | 94° |
| 2026-05-06 23:06 | 51.01837 | -112.64088 | 21529 ft | 458 kts | 94° |
| 2026-05-06 23:07 | 51.01463 | -112.59045 | 21961 ft | 461 kts | 94° |
| 2026-05-06 23:07 | 51.01085 | -112.53964 | 22375 ft | 464 kts | 94° |
| 2026-05-06 23:07 | 51.00703 | -112.48869 | 22786 ft | 467 kts | 94° |
| 2026-05-06 23:07 | 51.00321 | -112.43796 | 23173 ft | 470 kts | 94° |
| 2026-05-06 23:08 | 50.99930 | -112.38640 | 23543 ft | 473 kts | 94° |
| 2026-05-06 23:08 | 50.99534 | -112.33452 | 23864 ft | 475 kts | 94° |
| 2026-05-06 23:08 | 50.99134 | -112.28229 | 24216 ft | 477 kts | 94° |
| 2026-05-06 23:08 | 50.98728 | -112.22981 | 24566 ft | 480 kts | 94° |
| 2026-05-06 23:09 | 50.98320 | -112.17714 | 24931 ft | 481 kts | 94° |
| 2026-05-06 23:09 | 50.97908 | -112.12443 | 25247 ft | 483 kts | 94° |
| 2026-05-06 23:09 | 50.97491 | -112.07142 | 25560 ft | 485 kts | 94° |
| 2026-05-06 23:09 | 50.97071 | -112.01825 | 25890 ft | 488 kts | 94° |
| 2026-05-06 23:10 | 50.96645 | -111.96464 | 26197 ft | 490 kts | 94° |
| 2026-05-06 23:10 | 50.96220 | -111.91155 | 26499 ft | 492 kts | 94° |
| 2026-05-06 23:10 | 50.95787 | -111.85765 | 26793 ft | 494 kts | 94° |
| 2026-05-06 23:10 | 50.95348 | -111.80342 | 27103 ft | 496 kts | 94° |
| 2026-05-06 23:11 | 50.94906 | -111.74902 | 27383 ft | 498 kts | 94° |
| 2026-05-06 23:11 | 50.94458 | -111.69432 | 27675 ft | 501 kts | 94° |
| 2026-05-06 23:11 | 50.94007 | -111.63941 | 27946 ft | 503 kts | 94° |
| 2026-05-06 23:11 | 50.93554 | -111.58460 | 28226 ft | 505 kts | 94° |
| 2026-05-06 23:12 | 50.93168 | -111.52919 | 28491 ft | 504 kts | 88° |
| 2026-05-06 23:12 | 50.93403 | -111.47430 | 28798 ft | 495 kts | 73° |
| 2026-05-06 23:12 | 50.94442 | -111.42288 | 29168 ft | 485 kts | 60° |
| 2026-05-06 23:12 | 50.95869 | -111.37451 | 29478 ft | 485 kts | 59° |
| 2026-05-06 23:13 | 50.97294 | -111.32662 | 29829 ft | 485 kts | 60° |
| 2026-05-06 23:13 | 50.98706 | -111.27824 | 30162 ft | 484 kts | 60° |
| 2026-05-06 23:13 | 51.00137 | -111.22998 | 30519 ft | 483 kts | 59° |
| 2026-05-06 23:13 | 51.01577 | -111.18199 | 30876 ft | 480 kts | 59° |
| 2026-05-06 23:14 | 51.03020 | -111.13416 | 31227 ft | 479 kts | 59° |
| 2026-05-06 23:14 | 51.04455 | -111.08653 | 31555 ft | 477 kts | 58° |
| 2026-05-06 23:14 | 51.05889 | -111.03891 | 31879 ft | 476 kts | 59° |
| 2026-05-06 23:14 | 51.07316 | -110.99138 | 32183 ft | 475 kts | 59° |
| 2026-05-06 23:15 | 51.08744 | -110.94376 | 32478 ft | 474 kts | 59° |
| 2026-05-06 23:15 | 51.10158 | -110.89652 | 32773 ft | 473 kts | 59° |
| 2026-05-06 23:15 | 51.11549 | -110.84994 | 33061 ft | 473 kts | 59° |
| 2026-05-06 23:15 | 51.12974 | -110.80215 | 33387 ft | 471 kts | 58° |
| 2026-05-06 23:16 | 51.14376 | -110.75502 | 33715 ft | 470 kts | 58° |
| 2026-05-06 23:16 | 51.15752 | -110.70867 | 33973 ft | 469 kts | 58° |
| 2026-05-06 23:16 | 51.17146 | -110.66162 | 34191 ft | 469 kts | 59° |
| 2026-05-06 23:16 | 51.18538 | -110.61457 | 34399 ft | 468 kts | 59° |
| 2026-05-06 23:17 | 51.19924 | -110.56762 | 34613 ft | 468 kts | 59° |
| 2026-05-06 23:17 | 51.21302 | -110.52081 | 34822 ft | 467 kts | 59° |
| 2026-05-06 23:17 | 51.22683 | -110.47388 | 34947 ft | 468 kts | 59° |
| 2026-05-06 23:18 | 51.25437 | -110.37994 | 34984 ft | 465 kts | 58° |
| 2026-05-06 23:18 | 51.28162 | -110.28659 | 34948 ft | 463 kts | 58° |
| 2026-05-06 23:19 | 51.30882 | -110.19310 | 34954 ft | 464 kts | 58° |
| 2026-05-06 23:19 | 51.33574 | -110.10019 | 34950 ft | 464 kts | 58° |
| 2026-05-06 23:20 | 51.36285 | -110.00624 | 34961 ft | 464 kts | 58° |
| 2026-05-06 23:20 | 51.38979 | -109.91254 | 34964 ft | 462 kts | 58° |
| 2026-05-06 23:21 | 51.41662 | -109.81884 | 34968 ft | 463 kts | 58° |
| 2026-05-06 23:21 | 51.44317 | -109.72573 | 34967 ft | 463 kts | 58° |
| 2026-05-06 23:22 | 51.46990 | -109.63165 | 34957 ft | 463 kts | 58° |
| 2026-05-06 23:22 | 51.49652 | -109.53757 | 34974 ft | 462 kts | 58° |
| 2026-05-06 23:23 | 51.52286 | -109.44409 | 34929 ft | 461 kts | 58° |
| 2026-05-06 23:23 | 51.54919 | -109.35029 | 34923 ft | 462 kts | 58° |
| 2026-05-06 23:24 | 51.57551 | -109.25613 | 34916 ft | 461 kts | 58° |
| 2026-05-06 23:24 | 51.60177 | -109.16183 | 34915 ft | 461 kts | 58° |
| 2026-05-06 23:25 | 51.62780 | -109.06797 | 34924 ft | 462 kts | 58° |
| 2026-05-06 23:25 | 51.65390 | -108.97347 | 34941 ft | 462 kts | 58° |
| 2026-05-06 23:26 | 51.67994 | -108.87881 | 34960 ft | 462 kts | 58° |
| 2026-05-06 23:26 | 51.70589 | -108.78411 | 34978 ft | 462 kts | 58° |
| 2026-05-06 23:27 | 51.73156 | -108.69005 | 35033 ft | 461 kts | 58° |
| 2026-05-06 23:27 | 51.75728 | -108.59539 | 34990 ft | 459 kts | 58° |
| 2026-05-06 23:28 | 51.78290 | -108.50070 | 34998 ft | 460 kts | 58° |
| 2026-05-06 23:28 | 51.80830 | -108.40648 | 34996 ft | 460 kts | 58° |
| 2026-05-06 23:29 | 51.83375 | -108.31169 | 35003 ft | 460 kts | 58° |
| 2026-05-06 23:29 | 51.85913 | -108.21687 | 35009 ft | 458 kts | 58° |
| 2026-05-06 23:30 | 51.88433 | -108.12235 | 35008 ft | 458 kts | 58° |
| 2026-05-06 23:30 | 51.90936 | -108.02812 | 35014 ft | 458 kts | 58° |
| 2026-05-06 23:31 | 51.93811 | -107.93776 | 35032 ft | 452 kts | 53° |
| 2026-05-06 23:31 | 51.96842 | -107.84851 | 35066 ft | 451 kts | 52° |
| 2026-05-06 23:32 | 51.99861 | -107.75965 | 35002 ft | 449 kts | 52° |
| 2026-05-06 23:32 | 52.02875 | -107.67065 | 35017 ft | 450 kts | 52° |
| 2026-05-06 23:33 | 52.05876 | -107.58172 | 35013 ft | 449 kts | 52° |
| 2026-05-06 23:33 | 52.08864 | -107.49286 | 35017 ft | 450 kts | 52° |
| 2026-05-06 23:34 | 52.11858 | -107.40352 | 35053 ft | 449 kts | 52° |
| 2026-05-06 23:34 | 52.14833 | -107.31440 | 35018 ft | 446 kts | 52° |
| 2026-05-06 23:35 | 52.17790 | -107.22552 | 35019 ft | 447 kts | 52° |
| 2026-05-06 23:35 | 52.20731 | -107.13679 | 35024 ft | 448 kts | 52° |
| 2026-05-06 23:36 | 52.23688 | -107.04723 | 35021 ft | 448 kts | 52° |
| 2026-05-06 23:36 | 52.26638 | -106.95760 | 35043 ft | 446 kts | 52° |
| 2026-05-06 23:37 | 52.29547 | -106.86890 | 34981 ft | 446 kts | 52° |
| 2026-05-06 23:37 | 52.32473 | -106.77933 | 34982 ft | 446 kts | 52° |
| 2026-05-06 23:38 | 52.35392 | -106.68967 | 34982 ft | 446 kts | 52° |
| 2026-05-06 23:38 | 52.38304 | -106.59986 | 34996 ft | 446 kts | 52° |
| 2026-05-06 23:39 | 52.41187 | -106.51066 | 35012 ft | 445 kts | 53° |
| 2026-05-06 23:39 | 52.44079 | -106.42084 | 35028 ft | 446 kts | 53° |
| 2026-05-06 23:40 | 52.46972 | -106.33066 | 35036 ft | 446 kts | 53° |
| 2026-05-06 23:40 | 52.49854 | -106.24049 | 35039 ft | 446 kts | 53° |
| 2026-05-06 23:41 | 52.52710 | -106.15080 | 35087 ft | 446 kts | 53° |
| 2026-05-06 23:41 | 52.55577 | -106.06044 | 35034 ft | 444 kts | 53° |
| 2026-05-06 23:42 | 52.58423 | -105.97038 | 35037 ft | 444 kts | 53° |
| 2026-05-06 23:42 | 52.61249 | -105.88065 | 35034 ft | 444 kts | 53° |
| 2026-05-06 23:43 | 52.64085 | -105.79029 | 35034 ft | 445 kts | 53° |
| 2026-05-06 23:43 | 52.66916 | -105.69972 | 35079 ft | 444 kts | 53° |
| 2026-05-06 23:44 | 52.69726 | -105.60949 | 35030 ft | 441 kts | 53° |
| 2026-05-06 23:44 | 52.72525 | -105.51926 | 35039 ft | 442 kts | 53° |
| 2026-05-06 23:45 | 52.75318 | -105.42895 | 35040 ft | 442 kts | 53° |
| 2026-05-06 23:45 | 52.78107 | -105.33838 | 35040 ft | 442 kts | 54° |
| 2026-05-06 23:46 | 52.80875 | -105.24814 | 35091 ft | 442 kts | 54° |
| 2026-05-06 23:46 | 52.83643 | -105.15758 | 35030 ft | 440 kts | 54° |
| 2026-05-06 23:47 | 52.86401 | -105.06703 | 35041 ft | 441 kts | 54° |
| 2026-05-06 23:47 | 52.89145 | -104.97656 | 35041 ft | 441 kts | 54° |
| 2026-05-06 23:48 | 52.91897 | -104.88551 | 35037 ft | 441 kts | 54° |
| 2026-05-06 23:48 | 52.94634 | -104.79460 | 35037 ft | 441 kts | 54° |
| 2026-05-06 23:49 | 52.97368 | -104.70345 | 35036 ft | 441 kts | 54° |
| 2026-05-06 23:49 | 53.00088 | -104.61240 | 35037 ft | 441 kts | 54° |
| 2026-05-06 23:50 | 53.02790 | -104.52165 | 35038 ft | 441 kts | 54° |
| 2026-05-06 23:50 | 53.06860 | -104.38425 | 35037 ft | 442 kts | 54° |
| 2026-05-06 23:51 | 53.09105 | -104.30810 | 35040 ft | 441 kts | 55° |
| 2026-05-06 23:51 | 53.11802 | -104.21634 | 35031 ft | 441 kts | 55° |
| 2026-05-06 23:52 | 53.14492 | -104.12443 | 35028 ft | 441 kts | 55° |
| 2026-05-06 23:52 | 53.17176 | -104.03241 | 35001 ft | 441 kts | 55° |
| 2026-05-06 23:53 | 53.19850 | -103.94033 | 34997 ft | 441 kts | 55° |
| 2026-05-06 23:53 | 53.22520 | -103.84803 | 35005 ft | 442 kts | 56° |
| 2026-05-06 23:54 | 53.25172 | -103.75602 | 35006 ft | 442 kts | 56° |
| 2026-05-06 23:54 | 53.27835 | -103.66325 | 35009 ft | 442 kts | 56° |
| 2026-05-06 23:55 | 53.30484 | -103.57062 | 35015 ft | 442 kts | 56° |
| 2026-05-06 23:55 | 53.33130 | -103.47770 | 35021 ft | 443 kts | 56° |
| 2026-05-06 23:56 | 53.35763 | -103.38486 | 35025 ft | 445 kts | 57° |
| 2026-05-06 23:56 | 53.38415 | -103.29101 | 35022 ft | 445 kts | 57° |
| 2026-05-06 23:57 | 53.41060 | -103.19701 | 35021 ft | 445 kts | 57° |
| 2026-05-06 23:57 | 53.43690 | -103.10318 | 35023 ft | 446 kts | 57° |
| 2026-05-06 23:58 | 53.46317 | -103.00905 | 35022 ft | 446 kts | 57° |
| 2026-05-06 23:58 | 53.48934 | -102.91493 | 35020 ft | 448 kts | 58° |
| 2026-05-06 23:59 | 53.51570 | -102.81972 | 35021 ft | 449 kts | 58° |
| 2026-05-06 23:59 | 53.54193 | -102.72459 | 35021 ft | 449 kts | 58° |
| 2026-05-07 00:00 | 53.56796 | -102.62979 | 35025 ft | 449 kts | 58° |
| 2026-05-07 00:00 | 53.59411 | -102.53422 | 35031 ft | 449 kts | 58° |
| 2026-05-07 00:01 | 53.62020 | -102.43839 | 35036 ft | 450 kts | 59° |
| 2026-05-07 00:01 | 53.64621 | -102.34246 | 35032 ft | 451 kts | 59° |
| 2026-05-07 00:02 | 53.67222 | -102.24618 | 35031 ft | 451 kts | 59° |
| 2026-05-07 00:02 | 53.69792 | -102.15060 | 35032 ft | 451 kts | 59° |
| 2026-05-07 00:03 | 53.72378 | -102.05405 | 35074 ft | 451 kts | 60° |
| 2026-05-07 00:03 | 53.74956 | -101.95736 | 35041 ft | 453 kts | 60° |
| 2026-05-07 00:04 | 53.77536 | -101.86023 | 35038 ft | 453 kts | 60° |
| 2026-05-07 00:04 | 53.80109 | -101.76299 | 35037 ft | 453 kts | 60° |
| 2026-05-07 00:05 | 53.82678 | -101.66554 | 35039 ft | 453 kts | 60° |
| 2026-05-07 00:05 | 53.85234 | -101.56822 | 35075 ft | 453 kts | 60° |
| 2026-05-07 00:06 | 53.87780 | -101.47084 | 35049 ft | 454 kts | 60° |
| 2026-05-07 00:06 | 53.90333 | -101.37280 | 35035 ft | 455 kts | 60° |
| 2026-05-07 00:07 | 53.92881 | -101.27459 | 35044 ft | 455 kts | 60° |
| 2026-05-07 00:07 | 53.95416 | -101.17644 | 35008 ft | 455 kts | 61° |
| 2026-05-07 00:08 | 53.98099 | -101.07954 | 35029 ft | 450 kts | 55° |
| 2026-05-07 00:08 | 54.01219 | -100.98678 | 35007 ft | 452 kts | 55° |
| 2026-05-07 00:09 | 54.04351 | -100.89450 | 35010 ft | 452 kts | 55° |
| 2026-05-07 00:09 | 54.07485 | -100.80203 | 35011 ft | 452 kts | 55° |
| 2026-05-07 00:10 | 54.10621 | -100.70914 | 35010 ft | 452 kts | 55° |
| 2026-05-07 00:10 | 54.13747 | -100.61619 | 35034 ft | 452 kts | 56° |
| 2026-05-07 00:11 | 54.16871 | -100.52295 | 35016 ft | 454 kts | 56° |
| 2026-05-07 00:11 | 54.20000 | -100.42922 | 35012 ft | 454 kts | 56° |
| 2026-05-07 00:12 | 54.23101 | -100.33595 | 35012 ft | 454 kts | 56° |
| 2026-05-07 00:12 | 54.26221 | -100.24174 | 35007 ft | 455 kts | 56° |
| 2026-05-07 00:13 | 54.29322 | -100.14776 | 35006 ft | 455 kts | 56° |
| 2026-05-07 00:13 | 54.32430 | -100.05320 | 35010 ft | 455 kts | 56° |
| 2026-05-07 00:14 | 54.35525 | -99.95867 | 35005 ft | 454 kts | 56° |
| 2026-05-07 00:14 | 54.38590 | -99.86469 | 35005 ft | 454 kts | 56° |
| 2026-05-07 00:15 | 54.41662 | -99.77012 | 35005 ft | 454 kts | 56° |
| 2026-05-07 00:15 | 54.44735 | -99.67514 | 35005 ft | 454 kts | 56° |
| 2026-05-07 00:16 | 54.47808 | -99.57982 | 35014 ft | 457 kts | 57° |
| 2026-05-07 00:16 | 54.50882 | -99.48406 | 35010 ft | 457 kts | 57° |
| 2026-05-07 00:17 | 54.53943 | -99.38834 | 35012 ft | 457 kts | 57° |
| 2026-05-07 00:17 | 54.56981 | -99.29294 | 35013 ft | 457 kts | 57° |
| 2026-05-07 00:18 | 54.60034 | -99.19671 | 35012 ft | 457 kts | 57° |
| 2026-05-07 00:18 | 54.63082 | -99.10024 | 35020 ft | 458 kts | 58° |
| 2026-05-07 00:19 | 54.66125 | -99.00357 | 35018 ft | 458 kts | 58° |
| 2026-05-07 00:19 | 54.69164 | -98.90659 | 35013 ft | 458 kts | 58° |
| 2026-05-07 00:20 | 54.72187 | -98.80977 | 35022 ft | 458 kts | 58° |
| 2026-05-07 00:20 | 54.75186 | -98.71331 | 35010 ft | 458 kts | 58° |
| 2026-05-07 00:21 | 54.78189 | -98.61634 | 35033 ft | 458 kts | 58° |
| 2026-05-07 00:21 | 54.81198 | -98.51875 | 35028 ft | 459 kts | 59° |
| 2026-05-07 00:22 | 54.84202 | -98.42094 | 35026 ft | 459 kts | 59° |
| 2026-05-07 00:22 | 54.87194 | -98.32313 | 35026 ft | 459 kts | 59° |
| 2026-05-07 00:23 | 54.90175 | -98.22529 | 35030 ft | 459 kts | 59° |
| 2026-05-07 00:23 | 54.93153 | -98.12712 | 35040 ft | 459 kts | 59° |
| 2026-05-07 00:24 | 54.96104 | -98.02947 | 35037 ft | 459 kts | 59° |
| 2026-05-07 00:24 | 54.99069 | -97.93092 | 35035 ft | 459 kts | 59° |
| 2026-05-07 00:25 | 55.02015 | -97.83259 | 35032 ft | 459 kts | 59° |
| 2026-05-07 00:25 | 55.04960 | -97.73389 | 35033 ft | 458 kts | 60° |
| 2026-05-07 00:26 | 55.07897 | -97.63504 | 35044 ft | 458 kts | 60° |
| 2026-05-07 00:26 | 55.10825 | -97.53609 | 35032 ft | 458 kts | 60° |
| 2026-05-07 00:27 | 55.13717 | -97.43792 | 35034 ft | 458 kts | 60° |
| 2026-05-07 00:27 | 55.16628 | -97.33872 | 35031 ft | 458 kts | 60° |
| 2026-05-07 00:28 | 55.19532 | -97.23932 | 35029 ft | 458 kts | 60° |
| 2026-05-07 00:28 | 55.22429 | -97.13975 | 35042 ft | 459 kts | 61° |
| 2026-05-07 00:29 | 55.25299 | -97.04067 | 35026 ft | 459 kts | 61° |
| 2026-05-07 00:30 | 55.31055 | -96.84073 | 35019 ft | 459 kts | 61° |
| 2026-05-07 00:30 | 55.33927 | -96.74031 | 35015 ft | 459 kts | 61° |
| 2026-05-07 00:31 | 55.36771 | -96.64043 | 35026 ft | 457 kts | 62° |
| 2026-05-07 00:31 | 55.39591 | -96.54096 | 35013 ft | 457 kts | 62° |
| 2026-05-07 00:32 | 55.42427 | -96.44053 | 35007 ft | 458 kts | 62° |
| 2026-05-07 00:32 | 55.45249 | -96.34014 | 35008 ft | 458 kts | 62° |
| 2026-05-07 00:33 | 55.48060 | -96.23971 | 35007 ft | 458 kts | 62° |
| 2026-05-07 00:33 | 55.50870 | -96.13886 | 35001 ft | 458 kts | 62° |
| 2026-05-07 00:34 | 55.53678 | -96.03765 | 35003 ft | 458 kts | 62° |
| 2026-05-07 00:34 | 55.56455 | -95.93712 | 35002 ft | 458 kts | 62° |
| 2026-05-07 00:35 | 55.59242 | -95.83581 | 35003 ft | 458 kts | 62° |
| 2026-05-07 00:35 | 55.62017 | -95.73444 | 34998 ft | 458 kts | 62° |
| 2026-05-07 00:36 | 55.64794 | -95.63258 | 34997 ft | 458 kts | 62° |
| 2026-05-07 00:36 | 55.67559 | -95.53069 | 34999 ft | 457 kts | 63° |
| 2026-05-07 00:37 | 55.70279 | -95.43004 | 34999 ft | 457 kts | 63° |
| 2026-05-07 00:37 | 55.73022 | -95.32803 | 34998 ft | 457 kts | 63° |
| 2026-05-07 00:38 | 55.75752 | -95.22611 | 34999 ft | 457 kts | 63° |
| 2026-05-07 00:38 | 55.78012 | -95.14136 | 34993 ft | 457 kts | 63° |
| 2026-05-07 00:39 | 55.80721 | -95.03937 | 34995 ft | 457 kts | 63° |
| 2026-05-07 00:39 | 55.83426 | -94.93705 | 34989 ft | 457 kts | 63° |
| 2026-05-07 00:40 | 55.86122 | -94.83460 | 34990 ft | 457 kts | 63° |
| 2026-05-07 00:40 | 55.88812 | -94.73196 | 34990 ft | 457 kts | 63° |
| 2026-05-07 00:41 | 55.91489 | -94.62928 | 34988 ft | 457 kts | 63° |
| 2026-05-07 00:41 | 55.94157 | -94.52654 | 34988 ft | 457 kts | 63° |
| 2026-05-07 00:42 | 55.96821 | -94.42342 | 34986 ft | 458 kts | 64° |
| 2026-05-07 00:42 | 55.99478 | -94.32014 | 34985 ft | 458 kts | 64° |
| 2026-05-07 00:43 | 56.02105 | -94.21754 | 34980 ft | 458 kts | 64° |
| 2026-05-07 00:43 | 56.04750 | -94.11374 | 34982 ft | 458 kts | 64° |
| 2026-05-07 00:44 | 56.07378 | -94.01015 | 34976 ft | 458 kts | 64° |
| 2026-05-07 00:44 | 56.10006 | -93.90608 | 34981 ft | 458 kts | 64° |
| 2026-05-07 00:45 | 56.12615 | -93.80225 | 34974 ft | 458 kts | 64° |
| 2026-05-07 00:45 | 56.15219 | -93.69816 | 34971 ft | 458 kts | 64° |
| 2026-05-07 00:46 | 56.17820 | -93.59367 | 34970 ft | 458 kts | 64° |
| 2026-05-07 00:46 | 56.20394 | -93.48980 | 34967 ft | 458 kts | 64° |
| 2026-05-07 00:47 | 56.22972 | -93.38524 | 34972 ft | 458 kts | 65° |
| 2026-05-07 00:47 | 56.25540 | -93.28062 | 34969 ft | 457 kts | 65° |
| 2026-05-07 00:48 | 56.28099 | -93.17586 | 34963 ft | 456 kts | 65° |
| 2026-05-07 00:48 | 56.30637 | -93.07143 | 34963 ft | 456 kts | 65° |
| 2026-05-07 00:49 | 56.33158 | -92.96722 | 34956 ft | 456 kts | 65° |
| 2026-05-07 00:49 | 56.35683 | -92.86234 | 34968 ft | 456 kts | 65° |
| 2026-05-07 00:50 | 56.38199 | -92.75736 | 34950 ft | 455 kts | 65° |
| 2026-05-07 00:50 | 56.40699 | -92.65251 | 34956 ft | 455 kts | 65° |
| 2026-05-07 00:51 | 56.43194 | -92.54734 | 34952 ft | 455 kts | 65° |
| 2026-05-07 00:51 | 56.45681 | -92.44203 | 34945 ft | 455 kts | 65° |
| 2026-05-07 00:52 | 56.48143 | -92.33724 | 34954 ft | 455 kts | 65° |
| 2026-05-07 00:52 | 56.50607 | -92.23190 | 34943 ft | 455 kts | 65° |
| 2026-05-07 00:53 | 56.53066 | -92.12622 | 34943 ft | 455 kts | 65° |
| 2026-05-07 00:53 | 56.55518 | -92.02029 | 34941 ft | 455 kts | 66° |
| 2026-05-07 00:54 | 56.57940 | -91.91517 | 34936 ft | 453 kts | 66° |
| 2026-05-07 00:54 | 56.60361 | -91.80957 | 34932 ft | 453 kts | 66° |
| 2026-05-07 00:55 | 56.62776 | -91.70369 | 34941 ft | 454 kts | 66° |
| 2026-05-07 00:55 | 56.65184 | -91.59759 | 34931 ft | 454 kts | 66° |
| 2026-05-07 00:56 | 56.67586 | -91.49121 | 34930 ft | 454 kts | 66° |
| 2026-05-07 00:56 | 56.69971 | -91.38505 | 34923 ft | 454 kts | 66° |
| 2026-05-07 00:57 | 56.72338 | -91.27917 | 34922 ft | 454 kts | 66° |
| 2026-05-07 00:57 | 56.74715 | -91.17235 | 34924 ft | 455 kts | 66° |
| 2026-05-07 00:58 | 56.77084 | -91.06549 | 34915 ft | 455 kts | 66° |
| 2026-05-07 00:58 | 56.79444 | -90.95847 | 34916 ft | 455 kts | 66° |
| 2026-05-07 00:59 | 56.82976 | -90.79736 | 34910 ft | 455 kts | 66° |
| 2026-05-07 01:00 | 56.85306 | -90.69045 | 34899 ft | 456 kts | 66° |
| 2026-05-07 01:00 | 56.87639 | -90.58285 | 34911 ft | 456 kts | 66° |
| 2026-05-07 01:01 | 56.89963 | -90.47514 | 34903 ft | 457 kts | 66° |
| 2026-05-07 01:01 | 56.92294 | -90.36659 | 34890 ft | 457 kts | 66° |
| 2026-05-07 01:02 | 56.94610 | -90.25820 | 34888 ft | 457 kts | 66° |
| 2026-05-07 01:02 | 56.96916 | -90.14973 | 34878 ft | 457 kts | 66° |
| 2026-05-07 01:03 | 56.99211 | -90.04126 | 34879 ft | 457 kts | 66° |
| 2026-05-07 01:03 | 57.00621 | -89.99014 | 34858 ft | 452 kts | 53° |
| 2026-05-07 01:03 | 57.02516 | -89.94333 | 34880 ft | 452 kts | 50° |
| 2026-05-07 01:04 | 57.06404 | -89.85317 | 34865 ft | 452 kts | 49° |
| 2026-05-07 01:04 | 57.10373 | -89.76337 | 34861 ft | 452 kts | 48° |
| 2026-05-07 01:05 | 57.14344 | -89.67385 | 34862 ft | 451 kts | 49° |
| 2026-05-07 01:05 | 57.18309 | -89.58412 | 34852 ft | 451 kts | 49° |
| 2026-05-07 01:06 | 57.22273 | -89.49414 | 34844 ft | 453 kts | 49° |
| 2026-05-07 01:06 | 57.26233 | -89.40381 | 34850 ft | 452 kts | 49° |
| 2026-05-07 01:07 | 57.30172 | -89.31371 | 34838 ft | 452 kts | 48° |
| 2026-05-07 01:07 | 57.34121 | -89.22302 | 34826 ft | 451 kts | 49° |
| 2026-05-07 01:08 | 57.38036 | -89.13273 | 34824 ft | 452 kts | 49° |
| 2026-05-07 01:08 | 57.41970 | -89.04170 | 34811 ft | 452 kts | 48° |
| 2026-05-07 01:09 | 57.45889 | -88.95062 | 34812 ft | 452 kts | 49° |
| 2026-05-07 01:09 | 57.49813 | -88.85912 | 34803 ft | 452 kts | 49° |
| 2026-05-07 01:10 | 57.53720 | -88.76766 | 34803 ft | 452 kts | 49° |
| 2026-05-07 01:10 | 57.57617 | -88.67609 | 34797 ft | 454 kts | 49° |
| 2026-05-07 01:11 | 57.61520 | -88.58400 | 34776 ft | 454 kts | 50° |
| 2026-05-07 01:11 | 57.65440 | -88.49117 | 34783 ft | 454 kts | 50° |
| 2026-05-07 01:12 | 57.69344 | -88.39834 | 34778 ft | 454 kts | 50° |
| 2026-05-07 01:12 | 57.73232 | -88.30552 | 34766 ft | 452 kts | 50° |
| 2026-05-07 01:13 | 57.77102 | -88.21279 | 34753 ft | 453 kts | 49° |
| 2026-05-07 01:13 | 57.80979 | -88.11956 | 34765 ft | 454 kts | 50° |
| 2026-05-07 01:14 | 57.84844 | -88.02618 | 34751 ft | 456 kts | 50° |
| 2026-05-07 01:14 | 57.88726 | -87.93206 | 34739 ft | 455 kts | 51° |
| 2026-05-07 01:15 | 57.92595 | -87.83792 | 34740 ft | 455 kts | 51° |
| 2026-05-07 01:15 | 57.96454 | -87.74360 | 34722 ft | 454 kts | 51° |
| 2026-05-07 01:16 | 58.00284 | -87.64965 | 34736 ft | 454 kts | 51° |
| 2026-05-07 01:16 | 58.04131 | -87.55486 | 34714 ft | 455 kts | 51° |
| 2026-05-07 01:17 | 58.07976 | -87.45979 | 34708 ft | 457 kts | 51° |
| 2026-05-07 01:17 | 58.11825 | -87.36421 | 34708 ft | 456 kts | 50° |
| 2026-05-07 01:18 | 58.15667 | -87.26845 | 34690 ft | 456 kts | 51° |
| 2026-05-07 01:18 | 58.19498 | -87.17254 | 34695 ft | 455 kts | 51° |
| 2026-05-07 01:19 | 58.23314 | -87.07667 | 34684 ft | 456 kts | 52° |
| 2026-05-07 01:19 | 58.27104 | -86.98101 | 34676 ft | 456 kts | 51° |
| 2026-05-07 01:20 | 58.30914 | -86.88449 | 34678 ft | 457 kts | 51° |
| 2026-05-07 01:20 | 58.34716 | -86.78778 | 34669 ft | 457 kts | 52° |
| 2026-05-07 01:21 | 58.38523 | -86.69055 | 34655 ft | 458 kts | 51° |
| 2026-05-07 01:21 | 58.42323 | -86.59308 | 34655 ft | 458 kts | 52° |
| 2026-05-07 01:22 | 58.46093 | -86.49600 | 34636 ft | 457 kts | 52° |
| 2026-05-07 01:22 | 58.49862 | -86.39854 | 34632 ft | 457 kts | 52° |
| 2026-05-07 01:23 | 58.53635 | -86.30058 | 34633 ft | 457 kts | 52° |
| 2026-05-07 01:23 | 58.57398 | -86.20247 | 34619 ft | 458 kts | 52° |
| 2026-05-07 01:24 | 58.60529 | -86.12051 | 34621 ft | 458 kts | 52° |
| 2026-05-07 01:24 | 58.64290 | -86.02169 | 34609 ft | 458 kts | 52° |
| 2026-05-07 01:25 | 58.68054 | -85.92241 | 34607 ft | 459 kts | 53° |
| 2026-05-07 01:25 | 58.71787 | -85.82352 | 34601 ft | 459 kts | 53° |
| 2026-05-07 01:26 | 58.75529 | -85.72398 | 34596 ft | 458 kts | 53° |
| 2026-05-07 01:26 | 58.79251 | -85.62452 | 34582 ft | 458 kts | 52° |
| 2026-05-07 01:27 | 58.82978 | -85.52457 | 34586 ft | 459 kts | 53° |
| 2026-05-07 01:27 | 58.86713 | -85.42390 | 34570 ft | 461 kts | 53° |
| 2026-05-07 01:28 | 58.90417 | -85.32372 | 34569 ft | 461 kts | 53° |
| 2026-05-07 01:28 | 58.94131 | -85.22280 | 34573 ft | 461 kts | 53° |
| 2026-05-07 01:29 | 58.97837 | -85.12165 | 34551 ft | 459 kts | 53° |
| 2026-05-07 01:29 | 59.01536 | -85.02029 | 34556 ft | 459 kts | 54° |
| 2026-05-07 01:30 | 59.05199 | -84.91948 | 34544 ft | 459 kts | 54° |
| 2026-05-07 01:30 | 59.08877 | -84.81782 | 34540 ft | 461 kts | 54° |
| 2026-05-07 01:31 | 59.12557 | -84.71566 | 34534 ft | 461 kts | 54° |
| 2026-05-07 01:31 | 59.16226 | -84.61336 | 34519 ft | 460 kts | 54° |
| 2026-05-07 01:32 | 59.19894 | -84.51067 | 34517 ft | 461 kts | 54° |
| 2026-05-07 01:32 | 59.23534 | -84.40829 | 34517 ft | 459 kts | 55° |
| 2026-05-07 01:33 | 59.27169 | -84.30560 | 34506 ft | 460 kts | 54° |
| 2026-05-07 01:33 | 59.30796 | -84.20269 | 34504 ft | 459 kts | 55° |
| 2026-05-07 01:34 | 59.34419 | -84.09948 | 34507 ft | 460 kts | 55° |
| 2026-05-07 01:34 | 59.38003 | -83.99691 | 34486 ft | 460 kts | 55° |
| 2026-05-07 01:35 | 59.41618 | -83.89298 | 34484 ft | 460 kts | 55° |
| 2026-05-07 01:35 | 59.45212 | -83.78920 | 34485 ft | 460 kts | 55° |
| 2026-05-07 01:36 | 59.48807 | -83.68494 | 34476 ft | 459 kts | 56° |
| 2026-05-07 01:36 | 59.52381 | -83.58084 | 34469 ft | 459 kts | 56° |
| 2026-05-07 01:37 | 59.55927 | -83.47710 | 34463 ft | 459 kts | 56° |
| 2026-05-07 01:37 | 59.59496 | -83.37221 | 34456 ft | 460 kts | 56° |
| 2026-05-07 01:38 | 59.63056 | -83.26710 | 34457 ft | 460 kts | 56° |
| 2026-05-07 01:38 | 59.66596 | -83.16213 | 34449 ft | 460 kts | 56° |
| 2026-05-07 01:39 | 59.70143 | -83.05648 | 34453 ft | 460 kts | 56° |
| 2026-05-07 01:39 | 59.73649 | -82.95157 | 34446 ft | 459 kts | 56° |
| 2026-05-07 01:40 | 59.77176 | -82.84557 | 34437 ft | 459 kts | 56° |
| 2026-05-07 01:40 | 59.80685 | -82.73963 | 34435 ft | 459 kts | 57° |
| 2026-05-07 01:41 | 59.84186 | -82.63345 | 34438 ft | 459 kts | 57° |
| 2026-05-07 01:41 | 59.87681 | -82.52695 | 34422 ft | 459 kts | 57° |
| 2026-05-07 01:42 | 59.91148 | -82.42084 | 34421 ft | 459 kts | 57° |
| 2026-05-07 01:42 | 59.94623 | -82.31398 | 34414 ft | 460 kts | 57° |
| 2026-05-07 01:43 | 59.98090 | -82.20688 | 34413 ft | 458 kts | 57° |
| 2026-05-07 01:43 | 60.01543 | -82.09973 | 34408 ft | 458 kts | 57° |
| 2026-05-07 01:44 | 60.04962 | -81.99314 | 34402 ft | 459 kts | 57° |
| 2026-05-07 01:44 | 60.08407 | -81.88526 | 34399 ft | 461 kts | 57° |
| 2026-05-07 01:45 | 60.11851 | -81.77688 | 34402 ft | 460 kts | 58° |
| 2026-05-07 01:45 | 60.15289 | -81.66821 | 34385 ft | 460 kts | 58° |
| 2026-05-07 01:46 | 60.18713 | -81.55946 | 34387 ft | 460 kts | 58° |
| 2026-05-07 01:46 | 60.22097 | -81.45149 | 34387 ft | 460 kts | 58° |
| 2026-05-07 01:47 | 60.25506 | -81.34221 | 34372 ft | 460 kts | 58° |
| 2026-05-07 01:47 | 60.28907 | -81.23266 | 34378 ft | 461 kts | 58° |
| 2026-05-07 01:48 | 60.32300 | -81.12286 | 34375 ft | 463 kts | 58° |
| 2026-05-07 01:48 | 60.35704 | -81.01227 | 34370 ft | 463 kts | 58° |
| 2026-05-07 01:49 | 60.39095 | -80.90162 | 34372 ft | 463 kts | 58° |
| 2026-05-07 01:49 | 60.42458 | -80.79142 | 34368 ft | 463 kts | 58° |
| 2026-05-07 01:50 | 60.45823 | -80.68063 | 34363 ft | 462 kts | 59° |
| 2026-05-07 01:50 | 60.49187 | -80.56938 | 34365 ft | 462 kts | 59° |
| 2026-05-07 01:51 | 60.52541 | -80.45796 | 34368 ft | 462 kts | 59° |
| 2026-05-07 01:51 | 60.55884 | -80.34636 | 34360 ft | 463 kts | 59° |
| 2026-05-07 01:52 | 60.59215 | -80.23467 | 34360 ft | 463 kts | 59° |
| 2026-05-07 01:52 | 60.62524 | -80.12321 | 34356 ft | 463 kts | 59° |
| 2026-05-07 01:53 | 60.65859 | -80.01082 | 34355 ft | 463 kts | 58° |
| 2026-05-07 01:53 | 60.69389 | -79.90099 | 34355 ft | 462 kts | 57° |
| 2026-05-07 01:54 | 60.72921 | -79.79156 | 34356 ft | 462 kts | 57° |
| 2026-05-07 01:54 | 60.76455 | -79.68164 | 34357 ft | 462 kts | 57° |
| 2026-05-07 01:55 | 60.79959 | -79.57210 | 34352 ft | 463 kts | 58° |
| 2026-05-07 01:55 | 60.83481 | -79.46148 | 34357 ft | 463 kts | 58° |
| 2026-05-07 01:56 | 60.86986 | -79.35089 | 34359 ft | 463 kts | 58° |
| 2026-05-07 01:56 | 60.90487 | -79.23989 | 34356 ft | 463 kts | 58° |
| 2026-05-07 01:57 | 60.93974 | -79.12879 | 34355 ft | 461 kts | 58° |
| 2026-05-07 01:57 | 60.97443 | -79.01773 | 34356 ft | 461 kts | 58° |
| 2026-05-07 01:58 | 61.00868 | -78.90755 | 34357 ft | 461 kts | 58° |
| 2026-05-07 01:58 | 61.04321 | -78.79592 | 34360 ft | 462 kts | 58° |
| 2026-05-07 01:59 | 61.07782 | -78.68353 | 34359 ft | 462 kts | 58° |
| 2026-05-07 01:59 | 61.11223 | -78.57121 | 34362 ft | 462 kts | 59° |
| 2026-05-07 02:00 | 61.14643 | -78.45903 | 34367 ft | 462 kts | 59° |
| 2026-05-07 02:00 | 61.18043 | -78.34697 | 34370 ft | 462 kts | 59° |
| 2026-05-07 02:01 | 61.21451 | -78.23409 | 34376 ft | 462 kts | 59° |
| 2026-05-07 02:01 | 61.24854 | -78.12080 | 34373 ft | 462 kts | 59° |
| 2026-05-07 02:02 | 61.28244 | -78.00739 | 34372 ft | 463 kts | 59° |
| 2026-05-07 02:02 | 61.31631 | -77.89355 | 34379 ft | 463 kts | 59° |
| 2026-05-07 02:03 | 61.35013 | -77.77928 | 34378 ft | 463 kts | 59° |
| 2026-05-07 02:03 | 61.38380 | -77.66497 | 34375 ft | 462 kts | 60° |
| 2026-05-07 02:04 | 61.41722 | -77.55091 | 34384 ft | 461 kts | 60° |
| 2026-05-07 02:04 | 61.45041 | -77.43708 | 34384 ft | 461 kts | 60° |
| 2026-05-07 02:05 | 61.48372 | -77.32227 | 34389 ft | 461 kts | 60° |
| 2026-05-07 02:05 | 61.51694 | -77.20718 | 34392 ft | 461 kts | 60° |
| 2026-05-07 02:06 | 61.55001 | -77.09204 | 34396 ft | 462 kts | 60° |
| 2026-05-07 02:06 | 61.58307 | -76.97635 | 34397 ft | 462 kts | 60° |
| 2026-05-07 02:07 | 61.61601 | -76.86049 | 34400 ft | 461 kts | 61° |
| 2026-05-07 02:07 | 61.66499 | -76.68710 | 34407 ft | 460 kts | 61° |
| 2026-05-07 02:08 | 61.69740 | -76.57167 | 34406 ft | 460 kts | 61° |
| 2026-05-07 02:08 | 61.72991 | -76.45525 | 34411 ft | 460 kts | 62° |
| 2026-05-07 02:09 | 61.75680 | -76.35851 | 34411 ft | 460 kts | 62° |
| 2026-05-07 02:09 | 61.78906 | -76.24188 | 34417 ft | 460 kts | 62° |
| 2026-05-07 02:10 | 61.82651 | -76.10577 | 34421 ft | 460 kts | 62° |
| 2026-05-07 02:10 | 61.85339 | -76.00753 | 34432 ft | 459 kts | 62° |
| 2026-05-07 02:11 | 61.88515 | -75.89092 | 34435 ft | 459 kts | 63° |
| 2026-05-07 02:11 | 61.91689 | -75.77380 | 34445 ft | 459 kts | 63° |
| 2026-05-07 02:12 | 61.94868 | -75.65585 | 34445 ft | 459 kts | 63° |
| 2026-05-07 02:12 | 61.98040 | -75.53757 | 34447 ft | 459 kts | 63° |
| 2026-05-07 02:13 | 62.01196 | -75.41921 | 34451 ft | 459 kts | 63° |
| 2026-05-07 02:13 | 62.04318 | -75.30157 | 34467 ft | 460 kts | 63° |
| 2026-05-07 02:14 | 62.07443 | -75.18316 | 34457 ft | 457 kts | 63° |
| 2026-05-07 02:14 | 62.10553 | -75.06468 | 34462 ft | 456 kts | 64° |
| 2026-05-07 02:15 | 62.13647 | -74.94623 | 34462 ft | 456 kts | 64° |
| 2026-05-07 02:15 | 62.16723 | -74.82779 | 34451 ft | 456 kts | 64° |
| 2026-05-07 02:16 | 62.19775 | -74.70967 | 34467 ft | 456 kts | 64° |
| 2026-05-07 02:16 | 62.22840 | -74.59043 | 34468 ft | 456 kts | 64° |
| 2026-05-07 02:17 | 62.25893 | -74.47098 | 34472 ft | 456 kts | 64° |
| 2026-05-07 02:17 | 62.28918 | -74.35200 | 34472 ft | 453 kts | 64° |
| 2026-05-07 02:18 | 62.31934 | -74.23273 | 34479 ft | 453 kts | 64° |
| 2026-05-07 02:18 | 62.34933 | -74.11350 | 34486 ft | 453 kts | 65° |
| 2026-05-07 02:19 | 62.37906 | -73.99464 | 34493 ft | 453 kts | 65° |
| 2026-05-07 02:19 | 62.40879 | -73.87518 | 34489 ft | 453 kts | 65° |
| 2026-05-07 02:20 | 62.43850 | -73.75512 | 34503 ft | 453 kts | 65° |
| 2026-05-07 02:20 | 62.46809 | -73.63491 | 34498 ft | 453 kts | 65° |
| 2026-05-07 02:21 | 62.49760 | -73.51432 | 34501 ft | 453 kts | 65° |
| 2026-05-07 02:21 | 62.52694 | -73.39381 | 34516 ft | 453 kts | 65° |
| 2026-05-07 02:22 | 62.55621 | -73.27292 | 34521 ft | 453 kts | 65° |
| 2026-05-07 02:22 | 62.58522 | -73.15240 | 34523 ft | 453 kts | 65° |
| 2026-05-07 02:23 | 62.61427 | -73.03108 | 34528 ft | 453 kts | 65° |
| 2026-05-07 02:23 | 62.64316 | -72.90976 | 34532 ft | 453 kts | 66° |
| 2026-05-07 02:24 | 62.67186 | -72.78852 | 34531 ft | 453 kts | 66° |
| 2026-05-07 02:24 | 62.70057 | -72.66660 | 34531 ft | 451 kts | 66° |
| 2026-05-07 02:25 | 62.72904 | -72.54499 | 34544 ft | 450 kts | 66° |
| 2026-05-07 02:25 | 62.75735 | -72.42336 | 34544 ft | 450 kts | 66° |
| 2026-05-07 02:26 | 62.78557 | -72.30147 | 34548 ft | 450 kts | 66° |
| 2026-05-07 02:26 | 62.81374 | -72.17911 | 34553 ft | 450 kts | 66° |
| 2026-05-07 02:27 | 62.84170 | -72.05696 | 34558 ft | 450 kts | 66° |
| 2026-05-07 02:27 | 62.86959 | -71.93440 | 34563 ft | 450 kts | 66° |
| 2026-05-07 02:28 | 62.89739 | -71.81155 | 34548 ft | 449 kts | 67° |
| 2026-05-07 02:28 | 62.92482 | -71.68963 | 34570 ft | 448 kts | 67° |
| 2026-05-07 02:29 | 62.95232 | -71.56669 | 34572 ft | 448 kts | 67° |
| 2026-05-07 02:29 | 62.97970 | -71.44363 | 34572 ft | 448 kts | 67° |
| 2026-05-07 02:30 | 63.00699 | -71.32021 | 34584 ft | 448 kts | 67° |
| 2026-05-07 02:30 | 63.03419 | -71.19649 | 34584 ft | 448 kts | 67° |
| 2026-05-07 02:31 | 63.06108 | -71.07346 | 34580 ft | 448 kts | 68° |
| 2026-05-07 02:31 | 63.08802 | -70.94948 | 34569 ft | 448 kts | 68° |
| 2026-05-07 02:32 | 63.11477 | -70.82566 | 34592 ft | 445 kts | 68° |
| 2026-05-07 02:32 | 63.14131 | -70.70207 | 34595 ft | 445 kts | 68° |
| 2026-05-07 02:33 | 63.16779 | -70.57807 | 34604 ft | 445 kts | 68° |
| 2026-05-07 02:33 | 63.19401 | -70.45450 | 34603 ft | 445 kts | 68° |
| 2026-05-07 02:34 | 63.22006 | -70.33107 | 34604 ft | 445 kts | 68° |
| 2026-05-07 02:34 | 63.24622 | -70.20631 | 34616 ft | 444 kts | 69° |
| 2026-05-07 02:35 | 63.27221 | -70.08167 | 34616 ft | 444 kts | 69° |
| 2026-05-07 02:35 | 63.29787 | -69.95789 | 34613 ft | 444 kts | 69° |
| 2026-05-07 02:36 | 63.32363 | -69.83281 | 34627 ft | 444 kts | 69° |
| 2026-05-07 02:36 | 63.34929 | -69.70750 | 34637 ft | 444 kts | 69° |
| 2026-05-07 02:37 | 63.37483 | -69.58203 | 34636 ft | 444 kts | 69° |
| 2026-05-07 02:37 | 63.40017 | -69.45674 | 34632 ft | 444 kts | 69° |
| 2026-05-07 02:38 | 63.42530 | -69.33174 | 34640 ft | 444 kts | 69° |
| 2026-05-07 02:38 | 63.45048 | -69.20573 | 34637 ft | 444 kts | 69° |
| 2026-05-07 02:39 | 63.47553 | -69.07960 | 34639 ft | 442 kts | 69° |
| 2026-05-07 02:39 | 63.50037 | -68.95374 | 34655 ft | 441 kts | 70° |
| 2026-05-07 02:40 | 63.52494 | -68.82852 | 34668 ft | 442 kts | 70° |
| 2026-05-07 02:40 | 63.54956 | -68.70221 | 34675 ft | 443 kts | 70° |
| 2026-05-07 02:41 | 63.57414 | -68.57533 | 34678 ft | 443 kts | 70° |
| 2026-05-07 02:41 | 63.59853 | -68.44866 | 34679 ft | 443 kts | 70° |
| 2026-05-07 02:42 | 63.62295 | -68.32123 | 34672 ft | 443 kts | 70° |
| 2026-05-07 02:42 | 63.64721 | -68.19390 | 34645 ft | 443 kts | 70° |
| 2026-05-07 02:43 | 63.67123 | -68.06708 | 34663 ft | 442 kts | 70° |
| 2026-05-07 02:43 | 63.69519 | -67.93988 | 34670 ft | 442 kts | 70° |
| 2026-05-07 02:44 | 63.71913 | -67.81196 | 34675 ft | 442 kts | 70° |
| 2026-05-07 02:44 | 63.74299 | -67.68370 | 34666 ft | 443 kts | 70° |
| 2026-05-07 02:45 | 63.76660 | -67.55605 | 34665 ft | 443 kts | 71° |
| 2026-05-07 02:45 | 63.79020 | -67.42769 | 34667 ft | 443 kts | 71° |
| 2026-05-07 02:46 | 63.81374 | -67.29887 | 34665 ft | 443 kts | 71° |
| 2026-05-07 02:46 | 63.83716 | -67.16989 | 34674 ft | 440 kts | 71° |
| 2026-05-07 02:47 | 63.86029 | -67.04153 | 34677 ft | 439 kts | 71° |
| 2026-05-07 02:47 | 63.88212 | -66.91320 | 34676 ft | 439 kts | 72° |
| 2026-05-07 02:48 | 63.90442 | -66.78390 | 34684 ft | 439 kts | 72° |
| 2026-05-07 02:48 | 63.92685 | -66.65439 | 34684 ft | 440 kts | 72° |
| 2026-05-07 02:49 | 63.94905 | -66.52545 | 34676 ft | 440 kts | 72° |
| 2026-05-07 02:49 | 63.97124 | -66.39575 | 34693 ft | 440 kts | 72° |
| 2026-05-07 02:50 | 63.99335 | -66.26564 | 34646 ft | 440 kts | 72° |
| 2026-05-07 02:50 | 64.01525 | -66.13589 | 34685 ft | 438 kts | 73° |
| 2026-05-07 02:51 | 64.03699 | -66.00617 | 34718 ft | 438 kts | 73° |
| 2026-05-07 02:51 | 64.05857 | -65.87651 | 34722 ft | 438 kts | 73° |
| 2026-05-07 02:52 | 64.08008 | -65.74639 | 34722 ft | 438 kts | 73° |
| 2026-05-07 02:52 | 64.10151 | -65.61582 | 34743 ft | 439 kts | 73° |
| 2026-05-07 02:53 | 64.11934 | -65.50651 | 34755 ft | 441 kts | 73° |
| 2026-05-07 02:53 | 64.14407 | -65.35381 | 34750 ft | 441 kts | 73° |
| 2026-05-07 02:54 | 64.16173 | -65.24398 | 34768 ft | 439 kts | 74° |
| 2026-05-07 02:54 | 64.18250 | -65.11397 | 34769 ft | 431 kts | 74° |
| 2026-05-07 02:55 | 64.20305 | -64.98443 | 34774 ft | 431 kts | 74° |
| 2026-05-07 02:55 | 64.22335 | -64.85561 | 34781 ft | 431 kts | 75° |
| 2026-05-07 02:56 | 64.24366 | -64.72573 | 34773 ft | 431 kts | 75° |
| 2026-05-07 02:56 | 64.26389 | -64.59544 | 34779 ft | 431 kts | 75° |
| 2026-05-07 02:57 | 64.28386 | -64.46592 | 34795 ft | 431 kts | 75° |
| 2026-05-07 02:57 | 64.30383 | -64.33545 | 34792 ft | 431 kts | 75° |
| 2026-05-07 02:58 | 64.32352 | -64.20591 | 34785 ft | 425 kts | 75° |
| 2026-05-07 02:58 | 64.34278 | -64.07827 | 34782 ft | 422 kts | 75° |
| 2026-05-07 02:59 | 64.36191 | -63.95053 | 34796 ft | 422 kts | 76° |
| 2026-05-07 02:59 | 64.38101 | -63.82212 | 34797 ft | 422 kts | 76° |
| 2026-05-07 03:00 | 64.39995 | -63.69383 | 34798 ft | 422 kts | 76° |
| 2026-05-07 03:00 | 64.41868 | -63.56601 | 34817 ft | 422 kts | 76° |
| 2026-05-07 03:01 | 64.43743 | -63.43715 | 34807 ft | 422 kts | 76° |
| 2026-05-07 03:01 | 64.45611 | -63.30801 | 34808 ft | 422 kts | 76° |
| 2026-05-07 03:02 | 64.47446 | -63.18040 | 34836 ft | 416 kts | 77° |
| 2026-05-07 03:02 | 64.49264 | -63.05312 | 34825 ft | 414 kts | 77° |
| 2026-05-07 03:03 | 64.51463 | -62.92950 | 34837 ft | 419 kts | 71° |
| 2026-05-07 03:03 | 64.53852 | -62.80565 | 34850 ft | 418 kts | 72° |
| 2026-05-07 03:04 | 64.56184 | -62.68224 | 34853 ft | 418 kts | 72° |
| 2026-05-07 03:04 | 64.58500 | -62.55867 | 34847 ft | 418 kts | 72° |
| 2026-05-07 03:05 | 64.60815 | -62.43441 | 34867 ft | 418 kts | 72° |
| 2026-05-07 03:05 | 64.63127 | -62.30953 | 34814 ft | 419 kts | 73° |
| 2026-05-07 03:06 | 64.65395 | -62.18623 | 34867 ft | 413 kts | 73° |
| 2026-05-07 03:06 | 64.67646 | -62.06312 | 34892 ft | 413 kts | 73° |
| 2026-05-07 03:07 | 64.69884 | -61.94000 | 34889 ft | 413 kts | 73° |
| 2026-05-07 03:07 | 64.72110 | -61.81671 | 34891 ft | 413 kts | 74° |
| 2026-05-07 03:08 | 64.74336 | -61.69267 | 34908 ft | 413 kts | 74° |
| 2026-05-07 03:08 | 64.76547 | -61.56867 | 34911 ft | 412 kts | 74° |
| 2026-05-07 03:09 | 64.78751 | -61.44429 | 34911 ft | 412 kts | 74° |
| 2026-05-07 03:09 | 64.80926 | -61.32077 | 34932 ft | 409 kts | 74° |
| 2026-05-07 03:10 | 64.83092 | -61.19697 | 34930 ft | 409 kts | 75° |
| 2026-05-07 03:10 | 64.85233 | -61.07383 | 34933 ft | 409 kts | 75° |
| 2026-05-07 03:11 | 64.87376 | -60.94978 | 34963 ft | 410 kts | 75° |
| 2026-05-07 03:11 | 64.89505 | -60.82576 | 34956 ft | 410 kts | 75° |
| 2026-05-07 03:12 | 64.91636 | -60.70080 | 34957 ft | 410 kts | 75° |
| 2026-05-07 03:12 | 64.93742 | -60.57645 | 34987 ft | 409 kts | 75° |
| 2026-05-07 03:13 | 64.95844 | -60.45163 | 34987 ft | 409 kts | 75° |
| 2026-05-07 03:13 | 64.97938 | -60.32638 | 34983 ft | 409 kts | 75° |
| 2026-05-07 03:14 | 65.00014 | -60.20166 | 34998 ft | 409 kts | 75° |
| 2026-05-07 03:15 | 65.03114 | -60.01353 | 35005 ft | 408 kts | 77° |
| 2026-05-07 03:15 | 65.04770 | -59.88672 | 35010 ft | 406 kts | 79° |
| 2026-05-07 03:16 | 65.06462 | -59.75839 | 35001 ft | 408 kts | 79° |
| 2026-05-07 03:16 | 65.08157 | -59.62979 | 35010 ft | 407 kts | 79° |
| 2026-05-07 03:17 | 65.09832 | -59.50195 | 34973 ft | 407 kts | 78° |
| 2026-05-07 03:17 | 65.11506 | -59.37304 | 35030 ft | 408 kts | 79° |
| 2026-05-07 03:18 | 65.13154 | -59.24514 | 35028 ft | 407 kts | 79° |
| 2026-05-07 03:18 | 65.14806 | -59.11600 | 35031 ft | 407 kts | 79° |
| 2026-05-07 03:19 | 65.16433 | -58.98772 | 35053 ft | 407 kts | 79° |
| 2026-05-07 03:19 | 65.18054 | -58.85894 | 35051 ft | 407 kts | 79° |
| 2026-05-07 03:20 | 65.19667 | -58.72976 | 35048 ft | 407 kts | 79° |
| 2026-05-07 03:20 | 65.21274 | -58.60003 | 35073 ft | 408 kts | 79° |
| 2026-05-07 03:21 | 65.22865 | -58.47048 | 35049 ft | 408 kts | 79° |
| 2026-05-07 03:21 | 65.24452 | -58.34024 | 35069 ft | 410 kts | 79° |
| 2026-05-07 03:22 | 65.26029 | -58.20965 | 35091 ft | 410 kts | 79° |
| 2026-05-07 03:22 | 65.27591 | -58.07928 | 35094 ft | 410 kts | 79° |
| 2026-05-07 03:23 | 65.29151 | -57.94793 | 35099 ft | 409 kts | 79° |
| 2026-05-07 03:23 | 65.30690 | -57.81724 | 35111 ft | 409 kts | 79° |
| 2026-05-07 03:24 | 65.32225 | -57.68586 | 35113 ft | 409 kts | 79° |
| 2026-05-07 03:24 | 65.33735 | -57.55540 | 35113 ft | 409 kts | 79° |
| 2026-05-07 03:25 | 65.35247 | -57.42365 | 35072 ft | 410 kts | 79° |
| 2026-05-07 03:25 | 65.36746 | -57.29190 | 35120 ft | 413 kts | 79° |
| 2026-05-07 03:26 | 65.38248 | -57.15871 | 35128 ft | 413 kts | 79° |
| 2026-05-07 03:26 | 65.39734 | -57.02573 | 35129 ft | 413 kts | 79° |
| 2026-05-07 03:27 | 65.41204 | -56.89301 | 35139 ft | 413 kts | 79° |
| 2026-05-07 03:27 | 65.42670 | -56.75944 | 35139 ft | 413 kts | 80° |
| 2026-05-07 03:28 | 65.44124 | -56.62580 | 35141 ft | 413 kts | 80° |
| 2026-05-07 03:28 | 65.45556 | -56.49285 | 35146 ft | 413 kts | 80° |
| 2026-05-07 03:29 | 65.46984 | -56.35906 | 35102 ft | 413 kts | 80° |
| 2026-05-07 03:29 | 65.48401 | -56.22510 | 35149 ft | 416 kts | 80° |
| 2026-05-07 03:30 | 65.49822 | -56.08942 | 35157 ft | 416 kts | 80° |
| 2026-05-07 03:30 | 65.51217 | -55.95496 | 35159 ft | 416 kts | 80° |
| 2026-05-07 03:31 | 65.52607 | -55.81974 | 35160 ft | 416 kts | 80° |
| 2026-05-07 03:31 | 65.53989 | -55.68396 | 35165 ft | 416 kts | 80° |
| 2026-05-07 03:32 | 65.55348 | -55.54907 | 35164 ft | 416 kts | 80° |
| 2026-05-07 03:32 | 65.56704 | -55.41307 | 35165 ft | 416 kts | 81° |
| 2026-05-07 03:33 | 65.58045 | -55.27737 | 35123 ft | 416 kts | 80° |
| 2026-05-07 03:33 | 65.59381 | -55.14073 | 35165 ft | 419 kts | 80° |
| 2026-05-07 03:34 | 65.60702 | -55.00415 | 35164 ft | 419 kts | 80° |
| 2026-05-07 03:34 | 65.62023 | -54.86629 | 35164 ft | 419 kts | 80° |
| 2026-05-07 03:35 | 65.63319 | -54.72955 | 35173 ft | 419 kts | 80° |
| 2026-05-07 03:35 | 65.64609 | -54.59197 | 35177 ft | 419 kts | 81° |
| 2026-05-07 03:36 | 65.65888 | -54.45418 | 35179 ft | 419 kts | 81° |
| 2026-05-07 03:36 | 65.67154 | -54.31616 | 35175 ft | 419 kts | 81° |
| 2026-05-07 03:37 | 65.68403 | -54.17873 | 35146 ft | 419 kts | 80° |
| 2026-05-07 03:37 | 65.69644 | -54.04044 | 35172 ft | 421 kts | 80° |
| 2026-05-07 03:38 | 65.70881 | -53.90120 | 35176 ft | 421 kts | 80° |
| 2026-05-07 03:38 | 65.71892 | -53.78624 | 35179 ft | 421 kts | 81° |
| 2026-05-07 03:39 | 65.73307 | -53.62341 | 35179 ft | 421 kts | 81° |
| 2026-05-07 03:39 | 65.74503 | -53.48412 | 35184 ft | 421 kts | 81° |
| 2026-05-07 03:40 | 65.75489 | -53.36803 | 35184 ft | 421 kts | 81° |
| 2026-05-07 03:40 | 65.76854 | -53.20537 | 35185 ft | 421 kts | 81° |
| 2026-05-07 03:41 | 65.78014 | -53.06554 | 35169 ft | 422 kts | 80° |
| 2026-05-07 03:41 | 65.78972 | -52.94860 | 35190 ft | 424 kts | 80° |
| 2026-05-07 03:42 | 65.80296 | -52.78512 | 35178 ft | 423 kts | 80° |
| 2026-05-07 03:42 | 65.81242 | -52.66687 | 35189 ft | 423 kts | 80° |
| 2026-05-07 03:43 | 65.82356 | -52.52599 | 35191 ft | 423 kts | 81° |
| 2026-05-07 03:43 | 65.83453 | -52.38564 | 35177 ft | 423 kts | 81° |
| 2026-05-07 03:44 | 65.84539 | -52.24462 | 35157 ft | 423 kts | 81° |
| 2026-05-07 03:44 | 65.85615 | -52.10345 | 35191 ft | 423 kts | 81° |
| 2026-05-07 03:45 | 65.86679 | -51.96194 | 35174 ft | 424 kts | 80° |
| 2026-05-07 03:45 | 65.87734 | -51.81964 | 35188 ft | 425 kts | 80° |
| 2026-05-07 03:46 | 65.88773 | -51.67764 | 35196 ft | 425 kts | 80° |
| 2026-05-07 03:46 | 65.89794 | -51.53616 | 35192 ft | 425 kts | 81° |
| 2026-05-07 03:47 | 65.90809 | -51.39360 | 35198 ft | 425 kts | 81° |
| 2026-05-07 03:47 | 65.91810 | -51.25113 | 35194 ft | 425 kts | 81° |
| 2026-05-07 03:48 | 65.92797 | -51.10864 | 35201 ft | 425 kts | 81° |
| 2026-05-07 03:48 | 65.93779 | -50.96522 | 35193 ft | 425 kts | 81° |
| 2026-05-07 03:49 | 65.94750 | -50.82183 | 35196 ft | 429 kts | 80° |
| 2026-05-07 03:49 | 65.95709 | -50.67821 | 35209 ft | 429 kts | 80° |
| 2026-05-07 03:50 | 65.96661 | -50.53372 | 35206 ft | 429 kts | 80° |
| 2026-05-07 03:50 | 65.97599 | -50.38949 | 35213 ft | 429 kts | 80° |
| 2026-05-07 03:51 | 65.98525 | -50.24495 | 35215 ft | 429 kts | 81° |
| 2026-05-07 03:51 | 65.99441 | -50.10011 | 35206 ft | 429 kts | 81° |
| 2026-05-07 03:52 | 66.00115 | -49.95460 | 35214 ft | 429 kts | 86° |
| 2026-05-07 03:52 | 66.00493 | -49.80951 | 35213 ft | 430 kts | 85° |
| 2026-05-07 03:53 | 66.00930 | -49.66279 | 35205 ft | 430 kts | 85° |
| 2026-05-07 03:53 | 66.01369 | -49.51584 | 35213 ft | 430 kts | 85° |
| 2026-05-07 03:54 | 66.01794 | -49.36905 | 35214 ft | 430 kts | 85° |
| 2026-05-07 03:54 | 66.02202 | -49.22352 | 35211 ft | 430 kts | 85° |
| 2026-05-07 03:55 | 66.02601 | -49.07640 | 35215 ft | 430 kts | 85° |
| 2026-05-07 03:55 | 66.02985 | -48.92913 | 35216 ft | 430 kts | 85° |
| 2026-05-07 03:56 | 66.03355 | -48.78217 | 35213 ft | 430 kts | 85° |
| 2026-05-07 03:56 | 66.03710 | -48.63550 | 35220 ft | 431 kts | 85° |
| 2026-05-07 03:57 | 66.04052 | -48.48844 | 35225 ft | 434 kts | 84° |
| 2026-05-07 03:57 | 66.04383 | -48.33988 | 35222 ft | 434 kts | 84° |
| 2026-05-07 03:58 | 66.04699 | -48.19120 | 35223 ft | 434 kts | 85° |
| 2026-05-07 03:58 | 66.05001 | -48.04304 | 35225 ft | 434 kts | 85° |
| 2026-05-07 03:59 | 66.05289 | -47.89432 | 35225 ft | 434 kts | 85° |
| 2026-05-07 03:59 | 66.05562 | -47.74571 | 35226 ft | 435 kts | 85° |
| 2026-05-07 04:00 | 66.05822 | -47.59699 | 35226 ft | 434 kts | 85° |
| 2026-05-07 04:00 | 66.06065 | -47.44961 | 35232 ft | 434 kts | 85° |
| 2026-05-07 04:01 | 66.06297 | -47.29998 | 35235 ft | 434 kts | 84° |
| 2026-05-07 04:01 | 66.06511 | -47.15248 | 35227 ft | 434 kts | 84° |
| 2026-05-07 04:02 | 66.06714 | -47.00349 | 35219 ft | 434 kts | 84° |
| 2026-05-07 04:02 | 66.06902 | -46.85463 | 35219 ft | 434 kts | 84° |
| 2026-05-07 04:03 | 66.07075 | -46.70620 | 35219 ft | 435 kts | 84° |
| 2026-05-07 04:03 | 66.07234 | -46.55732 | 35222 ft | 435 kts | 85° |
| 2026-05-07 04:04 | 66.07378 | -46.40927 | 35222 ft | 435 kts | 85° |
| 2026-05-07 04:04 | 66.07509 | -46.26002 | 35234 ft | 435 kts | 84° |
| 2026-05-07 04:05 | 66.07626 | -46.11152 | 35253 ft | 435 kts | 84° |
| 2026-05-07 04:05 | 66.07727 | -45.96242 | 35238 ft | 434 kts | 84° |
| 2026-05-07 04:06 | 66.07815 | -45.81359 | 35232 ft | 435 kts | 84° |
| 2026-05-07 04:06 | 66.07888 | -45.66450 | 35256 ft | 435 kts | 84° |
| 2026-05-07 04:07 | 66.07947 | -45.51582 | 35259 ft | 435 kts | 84° |
| 2026-05-07 04:07 | 66.07991 | -45.36768 | 35253 ft | 435 kts | 84° |
| 2026-05-07 04:08 | 66.08021 | -45.21849 | 35264 ft | 435 kts | 84° |
| 2026-05-07 04:08 | 66.08037 | -45.06931 | 35279 ft | 435 kts | 85° |
| 2026-05-07 04:09 | 66.08039 | -44.92037 | 35312 ft | 436 kts | 84° |
| 2026-05-07 04:09 | 66.08026 | -44.77118 | 35269 ft | 435 kts | 84° |
| 2026-05-07 04:10 | 66.07999 | -44.62224 | 35291 ft | 435 kts | 84° |
| 2026-05-07 04:10 | 66.07957 | -44.47306 | 35292 ft | 435 kts | 84° |
| 2026-05-07 04:11 | 66.07901 | -44.32380 | 35303 ft | 435 kts | 84° |
| 2026-05-07 04:11 | 66.07831 | -44.17544 | 35302 ft | 436 kts | 84° |
| 2026-05-07 04:12 | 66.07745 | -44.02510 | 35304 ft | 436 kts | 84° |
| 2026-05-07 04:12 | 66.07647 | -43.87647 | 35314 ft | 436 kts | 85° |
| 2026-05-07 04:13 | 66.07533 | -43.72731 | 35368 ft | 437 kts | 84° |
| 2026-05-07 04:13 | 66.07405 | -43.57761 | 35341 ft | 435 kts | 84° |
| 2026-05-07 04:14 | 66.07262 | -43.42856 | 35337 ft | 436 kts | 84° |
| 2026-05-07 04:14 | 66.07105 | -43.27921 | 35344 ft | 436 kts | 84° |
| 2026-05-07 04:15 | 66.06935 | -43.13109 | 35349 ft | 436 kts | 84° |
| 2026-05-07 04:15 | 66.06749 | -42.98186 | 35351 ft | 436 kts | 84° |
| 2026-05-07 04:16 | 66.06549 | -42.83249 | 35349 ft | 436 kts | 85° |
| 2026-05-07 04:16 | 66.06334 | -42.68327 | 35353 ft | 436 kts | 85° |
| 2026-05-07 04:17 | 66.06105 | -42.53352 | 35364 ft | 438 kts | 85° |
| 2026-05-07 04:17 | 66.05861 | -42.38456 | 35363 ft | 438 kts | 84° |
| 2026-05-07 04:18 | 66.05602 | -42.23469 | 35341 ft | 438 kts | 85° |
| 2026-05-07 04:18 | 66.05328 | -42.08459 | 35342 ft | 438 kts | 85° |
| 2026-05-07 04:19 | 66.05041 | -41.93552 | 35344 ft | 438 kts | 85° |
| 2026-05-07 04:19 | 66.04738 | -41.78577 | 35342 ft | 439 kts | 85° |
| 2026-05-07 04:20 | 66.04420 | -41.63574 | 35345 ft | 439 kts | 85° |
| 2026-05-07 04:20 | 66.04088 | -41.48563 | 35346 ft | 439 kts | 85° |
| 2026-05-07 04:21 | 66.03563 | -41.26100 | 35393 ft | 443 kts | 85° |
| 2026-05-07 04:21 | 66.03189 | -41.10937 | 35364 ft | 444 kts | 85° |
| 2026-05-07 04:22 | 66.02802 | -40.95746 | 35361 ft | 444 kts | 85° |
| 2026-05-07 04:22 | 66.02407 | -40.80668 | 35363 ft | 444 kts | 86° |
| 2026-05-07 04:23 | 66.01997 | -40.65535 | 35365 ft | 445 kts | 86° |
| 2026-05-07 04:23 | 66.01572 | -40.50353 | 35362 ft | 445 kts | 86° |
| 2026-05-07 04:24 | 66.01133 | -40.35189 | 35398 ft | 445 kts | 86° |
| 2026-05-07 04:24 | 66.00682 | -40.20030 | 35401 ft | 445 kts | 86° |
| 2026-05-07 04:25 | 66.00217 | -40.04893 | 35439 ft | 445 kts | 86° |
| 2026-05-07 04:25 | 65.99245 | -39.89807 | 35434 ft | 451 kts | 91° |
| 2026-05-07 04:26 | 65.98197 | -39.74614 | 35425 ft | 450 kts | 91° |
| 2026-05-07 04:26 | 65.97182 | -39.59445 | 35436 ft | 450 kts | 91° |
| 2026-05-07 04:27 | 65.96334 | -39.46837 | 35436 ft | 451 kts | 91° |
| 2026-05-07 04:27 | 65.95299 | -39.31678 | 35433 ft | 451 kts | 91° |
| 2026-05-07 04:28 | 65.94249 | -39.16514 | 35449 ft | 451 kts | 91° |
| 2026-05-07 04:28 | 65.93183 | -39.01352 | 35442 ft | 452 kts | 92° |
| 2026-05-07 04:29 | 65.92098 | -38.86135 | 35424 ft | 454 kts | 92° |
| 2026-05-07 04:29 | 65.90997 | -38.70927 | 35433 ft | 455 kts | 92° |
| 2026-05-07 04:30 | 65.89882 | -38.55753 | 35387 ft | 456 kts | 92° |
| 2026-05-07 04:30 | 65.88745 | -38.40481 | 35372 ft | 455 kts | 92° |
| 2026-05-07 04:31 | 65.87594 | -38.25256 | 35373 ft | 456 kts | 92° |
| 2026-05-07 04:31 | 65.86425 | -38.09999 | 35372 ft | 456 kts | 93° |
| 2026-05-07 04:32 | 65.85249 | -37.94857 | 35398 ft | 457 kts | 94° |
| 2026-05-07 04:32 | 65.84042 | -37.79536 | 35374 ft | 459 kts | 94° |
| 2026-05-07 04:33 | 65.82821 | -37.64240 | 35362 ft | 459 kts | 94° |
| 2026-05-07 04:33 | 65.81584 | -37.48942 | 35365 ft | 460 kts | 94° |
| 2026-05-07 04:34 | 65.80330 | -37.33645 | 35372 ft | 460 kts | 94° |
| 2026-05-07 04:34 | 65.79069 | -37.18458 | 35387 ft | 460 kts | 94° |
| 2026-05-07 04:35 | 65.77786 | -37.03207 | 35363 ft | 460 kts | 95° |
| 2026-05-07 04:35 | 65.76487 | -36.87967 | 35389 ft | 460 kts | 95° |
| 2026-05-07 04:36 | 65.75167 | -36.72664 | 35370 ft | 462 kts | 95° |
| 2026-05-07 04:36 | 65.73832 | -36.57387 | 35361 ft | 462 kts | 96° |
| 2026-05-07 04:37 | 65.72481 | -36.42116 | 35357 ft | 462 kts | 96° |
| 2026-05-07 04:37 | 65.71114 | -36.26843 | 35358 ft | 462 kts | 96° |
| 2026-05-07 04:38 | 65.69728 | -36.11556 | 35354 ft | 463 kts | 96° |
| 2026-05-07 04:38 | 65.68328 | -35.96302 | 35352 ft | 463 kts | 96° |
| 2026-05-07 04:39 | 65.66921 | -35.81153 | 35374 ft | 463 kts | 96° |
| 2026-05-07 04:39 | 65.65487 | -35.65880 | 35350 ft | 465 kts | 97° |
| 2026-05-07 04:40 | 65.64031 | -35.50562 | 35355 ft | 465 kts | 97° |
| 2026-05-07 04:40 | 65.62569 | -35.35357 | 35354 ft | 465 kts | 97° |
| 2026-05-07 04:41 | 65.61087 | -35.20123 | 35355 ft | 466 kts | 97° |
| 2026-05-07 04:41 | 65.59585 | -35.04864 | 35354 ft | 466 kts | 97° |
| 2026-05-07 04:42 | 65.58068 | -34.89620 | 35380 ft | 466 kts | 98° |
| 2026-05-07 04:42 | 65.56538 | -34.74407 | 35380 ft | 466 kts | 98° |
| 2026-05-07 04:43 | 65.55000 | -34.59287 | 35362 ft | 467 kts | 98° |
| 2026-05-07 04:43 | 65.53433 | -34.44052 | 35361 ft | 468 kts | 99° |
| 2026-05-07 04:44 | 65.51851 | -34.28837 | 35362 ft | 468 kts | 99° |
| 2026-05-07 04:44 | 65.50255 | -34.13657 | 35363 ft | 468 kts | 99° |
| 2026-05-07 04:45 | 65.48644 | -33.98490 | 35361 ft | 468 kts | 99° |
| 2026-05-07 04:45 | 65.47012 | -33.83297 | 35362 ft | 468 kts | 99° |
| 2026-05-07 04:46 | 65.45367 | -33.68127 | 35414 ft | 468 kts | 100° |
| 2026-05-07 04:46 | 65.43713 | -33.53046 | 35365 ft | 470 kts | 100° |
| 2026-05-07 04:47 | 65.42034 | -33.37894 | 35365 ft | 470 kts | 100° |
| 2026-05-07 04:47 | 65.40337 | -33.22729 | 35365 ft | 470 kts | 100° |
| 2026-05-07 04:48 | 65.38622 | -33.07564 | 35363 ft | 470 kts | 101° |
| 2026-05-07 04:48 | 65.36910 | -32.92575 | 35370 ft | 470 kts | 101° |
| 2026-05-07 04:49 | 65.35165 | -32.77442 | 35371 ft | 470 kts | 101° |
| 2026-05-07 04:49 | 65.33407 | -32.62358 | 35390 ft | 470 kts | 101° |
| 2026-05-07 04:50 | 65.31630 | -32.47257 | 35372 ft | 471 kts | 101° |
| 2026-05-07 04:50 | 65.29839 | -32.32184 | 35374 ft | 471 kts | 101° |
| 2026-05-07 04:51 | 65.28043 | -32.17216 | 35373 ft | 471 kts | 102° |
| 2026-05-07 04:51 | 65.26220 | -32.02170 | 35373 ft | 472 kts | 102° |
| 2026-05-07 04:52 | 65.24382 | -31.87141 | 35372 ft | 472 kts | 102° |
| 2026-05-07 04:52 | 65.22529 | -31.72136 | 35376 ft | 472 kts | 102° |
| 2026-05-07 04:53 | 65.20660 | -31.57144 | 35389 ft | 472 kts | 102° |
| 2026-05-07 04:53 | 65.18773 | -31.42144 | 35376 ft | 473 kts | 102° |
| 2026-05-07 04:54 | 65.16878 | -31.27226 | 35372 ft | 473 kts | 103° |
| 2026-05-07 04:54 | 65.14964 | -31.12296 | 35380 ft | 473 kts | 103° |
| 2026-05-07 04:55 | 65.13030 | -30.97342 | 35376 ft | 473 kts | 103° |
| 2026-05-07 04:55 | 65.11084 | -30.82399 | 35374 ft | 473 kts | 103° |
| 2026-05-07 04:56 | 65.09139 | -30.67577 | 35369 ft | 473 kts | 103° |
| 2026-05-07 04:56 | 65.07169 | -30.52694 | 35381 ft | 473 kts | 103° |
| 2026-05-07 04:57 | 65.05187 | -30.37835 | 35372 ft | 473 kts | 104° |
| 2026-05-07 04:57 | 65.03184 | -30.22948 | 35368 ft | 474 kts | 104° |
| 2026-05-07 04:58 | 65.01176 | -30.08139 | 35368 ft | 474 kts | 104° |
| 2026-05-07 04:58 | 64.98954 | -29.93501 | 35373 ft | 475 kts | 107° |
| 2026-05-07 04:59 | 64.96622 | -29.78981 | 35369 ft | 475 kts | 107° |
| 2026-05-07 04:59 | 64.94298 | -29.64375 | 35368 ft | 475 kts | 107° |
| 2026-05-07 05:00 | 64.91970 | -29.49823 | 35370 ft | 475 kts | 107° |
| 2026-05-07 05:00 | 64.89623 | -29.35262 | 35374 ft | 475 kts | 107° |
| 2026-05-07 05:01 | 64.87259 | -29.20713 | 35369 ft | 475 kts | 107° |
| 2026-05-07 05:01 | 64.84901 | -29.06312 | 35368 ft | 475 kts | 107° |
| 2026-05-07 05:02 | 64.82515 | -28.91848 | 35365 ft | 475 kts | 108° |
| 2026-05-07 05:02 | 64.80105 | -28.77356 | 35388 ft | 475 kts | 108° |
| 2026-05-07 05:03 | 64.77684 | -28.62905 | 35375 ft | 475 kts | 108° |
| 2026-05-07 05:03 | 64.75264 | -28.48566 | 35361 ft | 475 kts | 108° |
| 2026-05-07 05:04 | 64.72821 | -28.34203 | 35360 ft | 475 kts | 108° |
| 2026-05-07 05:04 | 64.70360 | -28.19839 | 35354 ft | 475 kts | 108° |
| 2026-05-07 05:05 | 64.67885 | -28.05504 | 35354 ft | 475 kts | 108° |
| 2026-05-07 05:05 | 64.65397 | -27.91197 | 35355 ft | 476 kts | 109° |
| 2026-05-07 05:06 | 64.62899 | -27.76937 | 35344 ft | 476 kts | 109° |
| 2026-05-07 05:06 | 64.60395 | -27.62750 | 35349 ft | 476 kts | 109° |
| 2026-05-07 05:07 | 64.57857 | -27.48474 | 35342 ft | 476 kts | 109° |
| 2026-05-07 05:07 | 64.55323 | -27.34321 | 35343 ft | 476 kts | 109° |
| 2026-05-07 05:08 | 64.52760 | -27.20080 | 35341 ft | 476 kts | 109° |
| 2026-05-07 05:08 | 64.50219 | -27.05950 | 35334 ft | 476 kts | 108° |
| 2026-05-07 05:09 | 64.47784 | -26.91654 | 35333 ft | 476 kts | 108° |
| 2026-05-07 05:09 | 64.45331 | -26.77411 | 35330 ft | 476 kts | 109° |
| 2026-05-07 05:10 | 64.42875 | -26.63255 | 35331 ft | 476 kts | 109° |
| 2026-05-07 05:10 | 64.40392 | -26.49050 | 35328 ft | 476 kts | 109° |
| 2026-05-07 05:11 | 64.38313 | -26.37240 | 35337 ft | 476 kts | 109° |
| 2026-05-07 05:11 | 64.35811 | -26.23112 | 35319 ft | 475 kts | 109° |
| 2026-05-07 05:12 | 64.33293 | -26.09001 | 35317 ft | 475 kts | 109° |
| 2026-05-07 05:12 | 64.30769 | -25.94957 | 34640 ft | 473 kts | 110° |
| 2026-05-07 05:13 | 64.29491 | -25.87888 | 33598 ft | 479 kts | 110° |
| 2026-05-07 05:13 | 64.28232 | -25.80946 | 33072 ft | 472 kts | 110° |
| 2026-05-07 05:13 | 64.26972 | -25.74022 | 32337 ft | 471 kts | 110° |
| 2026-05-07 05:13 | 64.25700 | -25.67055 | 31574 ft | 470 kts | 110° |
| 2026-05-07 05:14 | 64.24422 | -25.60083 | 30798 ft | 470 kts | 111° |
| 2026-05-07 05:14 | 64.23150 | -25.53164 | 29946 ft | 470 kts | 111° |
| 2026-05-07 05:14 | 64.21872 | -25.46237 | 28963 ft | 471 kts | 111° |
| 2026-05-07 05:14 | 64.20583 | -25.39279 | 27948 ft | 472 kts | 111° |
| 2026-05-07 05:15 | 64.19292 | -25.32331 | 26916 ft | 474 kts | 111° |
| 2026-05-07 05:15 | 64.18010 | -25.25458 | 25872 ft | 476 kts | 111° |
| 2026-05-07 05:15 | 64.16706 | -25.18487 | 25042 ft | 475 kts | 111° |
| 2026-05-07 05:15 | 64.15407 | -25.11573 | 24330 ft | 470 kts | 111° |
| 2026-05-07 05:16 | 64.14119 | -25.04731 | 23585 ft | 465 kts | 111° |
| 2026-05-07 05:16 | 64.12842 | -24.97959 | 22797 ft | 461 kts | 111° |
| 2026-05-07 05:16 | 64.11571 | -24.91251 | 22034 ft | 456 kts | 111° |
| 2026-05-07 05:16 | 64.10446 | -24.84541 | 21351 ft | 449 kts | 107° |
| 2026-05-07 05:17 | 64.09404 | -24.77841 | 20670 ft | 444 kts | 107° |
| 2026-05-07 05:17 | 64.08356 | -24.71233 | 20001 ft | 439 kts | 107° |
| 2026-05-07 05:17 | 64.07320 | -24.64759 | 19364 ft | 435 kts | 108° |
| 2026-05-07 05:17 | 64.06291 | -24.58381 | 18783 ft | 429 kts | 108° |
| 2026-05-07 05:18 | 64.05265 | -24.52040 | 18111 ft | 425 kts | 108° |
| 2026-05-07 05:18 | 64.04237 | -24.45709 | 17443 ft | 421 kts | 108° |
| 2026-05-07 05:18 | 64.03221 | -24.39469 | 16784 ft | 417 kts | 108° |
| 2026-05-07 05:18 | 64.02212 | -24.33296 | 16146 ft | 413 kts | 108° |
| 2026-05-07 05:19 | 64.01212 | -24.27201 | 15549 ft | 409 kts | 108° |
| 2026-05-07 05:19 | 64.00217 | -24.21158 | 14997 ft | 404 kts | 107° |
| 2026-05-07 05:19 | 63.99244 | -24.15263 | 14376 ft | 392 kts | 108° |
| 2026-05-07 05:19 | 63.98292 | -24.09512 | 13528 ft | 389 kts | 107° |
| 2026-05-07 05:20 | 63.97361 | -24.03891 | 12834 ft | 377 kts | 107° |
| 2026-05-07 05:20 | 63.96446 | -23.98371 | 12072 ft | 367 kts | 108° |
| 2026-05-07 05:20 | 63.95556 | -23.93013 | 11373 ft | 357 kts | 107° |
| 2026-05-07 05:20 | 63.94694 | -23.87835 | 10915 ft | 341 kts | 107° |
| 2026-05-07 05:21 | 63.93882 | -23.82972 | 10764 ft | 318 kts | 107° |
| 2026-05-07 05:21 | 63.92405 | -23.74151 | 10478 ft | 279 kts | 108° |
| 2026-05-07 05:21 | 63.91735 | -23.70155 | 10318 ft | 262 kts | 108° |
| 2026-05-07 05:22 | 63.91100 | -23.66389 | 10194 ft | 249 kts | 105° |
| 2026-05-07 05:22 | 63.90473 | -23.62655 | 9932 ft | 260 kts | 106° |
| 2026-05-07 05:22 | 63.89824 | -23.58800 | 9622 ft | 266 kts | 107° |
| 2026-05-07 05:22 | 63.89160 | -23.54868 | 9317 ft | 267 kts | 108° |
| 2026-05-07 05:23 | 63.88490 | -23.50925 | 9024 ft | 266 kts | 108° |
| 2026-05-07 05:23 | 63.87826 | -23.47018 | 8739 ft | 265 kts | 108° |
| 2026-05-07 05:23 | 63.87157 | -23.43111 | 8457 ft | 264 kts | 108° |
| 2026-05-07 05:23 | 63.86506 | -23.39284 | 8183 ft | 263 kts | 107° |
| 2026-05-07 05:24 | 63.85837 | -23.35380 | 7895 ft | 261 kts | 106° |
| 2026-05-07 05:24 | 63.85183 | -23.31544 | 7603 ft | 260 kts | 108° |
| 2026-05-07 05:24 | 63.84527 | -23.27734 | 7265 ft | 259 kts | 108° |
| 2026-05-07 05:24 | 63.83876 | -23.23946 | 6884 ft | 258 kts | 106° |
| 2026-05-07 05:25 | 63.83224 | -23.20180 | 6538 ft | 256 kts | 106° |
| 2026-05-07 05:25 | 63.82585 | -23.16473 | 6249 ft | 255 kts | 107° |
| 2026-05-07 05:25 | 63.81939 | -23.12744 | 5965 ft | 254 kts | 106° |
| 2026-05-07 05:25 | 63.81301 | -23.09048 | 5679 ft | 253 kts | 109° |
| 2026-05-07 05:26 | 63.80656 | -23.05347 | 5402 ft | 252 kts | 106° |
| 2026-05-07 05:26 | 63.80016 | -23.01662 | 5145 ft | 251 kts | 109° |
| 2026-05-07 05:26 | 63.79377 | -22.98009 | 4858 ft | 250 kts | 106° |
| 2026-05-07 05:26 | 63.78739 | -22.94357 | 4610 ft | 246 kts | 109° |
| 2026-05-07 05:27 | 63.78126 | -22.90863 | 4475 ft | 231 kts | 108° |
| 2026-05-07 05:27 | 63.77555 | -22.87607 | 4352 ft | 215 kts | 107° |
| 2026-05-07 05:27 | 63.77080 | -22.84547 | 4198 ft | 199 kts | 93° |
| 2026-05-07 05:27 | 63.77226 | -22.81499 | 4003 ft | 198 kts | 69° |
| 2026-05-07 05:28 | 63.77653 | -22.78471 | 4020 ft | 205 kts | 69° |
| 2026-05-07 05:28 | 63.78093 | -22.75425 | 3804 ft | 204 kts | 68° |
| 2026-05-07 05:28 | 63.78544 | -22.72439 | 3523 ft | 202 kts | 69° |
| 2026-05-07 05:28 | 63.79009 | -22.69429 | 3155 ft | 203 kts | 67° |
| 2026-05-07 05:29 | 63.79476 | -22.66444 | 2888 ft | 200 kts | 68° |
| 2026-05-07 05:29 | 63.79990 | -22.63527 | 2582 ft | 195 kts | 56° |
| 2026-05-07 05:29 | 63.80964 | -22.61617 | 2455 ft | 191 kts | 22° |
| 2026-05-07 05:29 | 63.82246 | -22.60853 | 2510 ft | 190 kts | 9° |
| 2026-05-07 05:30 | 63.83557 | -22.60614 | 2506 ft | 188 kts | 4° |
| 2026-05-07 05:30 | 63.84801 | -22.60557 | 2460 ft | 172 kts | 2° |
| 2026-05-07 05:30 | 63.85960 | -22.60547 | 2307 ft | 166 kts | 2° |
| 2026-05-07 05:30 | 63.87103 | -22.60543 | 2111 ft | 162 kts | 3° |
| 2026-05-07 05:31 | 63.88221 | -22.60539 | 1900 ft | 159 kts | 2° |
| 2026-05-07 05:31 | 63.89322 | -22.60540 | 1693 ft | 156 kts | 2° |
| 2026-05-07 05:31 | 63.90401 | -22.60539 | 1462 ft | 155 kts | 3° |
| 2026-05-07 05:31 | 63.91471 | -22.60538 | 1230 ft | 151 kts | 2° |
| 2026-05-07 05:32 | 63.92511 | -22.60539 | 1045 ft | 148 kts | 3° |
| 2026-05-07 05:32 | 63.93512 | -22.60537 | 788 ft | 140 kts | 2° |
| 2026-05-07 05:32 | 63.94463 | -22.60539 | 590 ft | 134 kts | 2° |
| 2026-05-07 05:32 | 63.95387 | -22.60558 | 396 ft | 132 kts | 1° |
| 2026-05-07 05:33 | 63.96281 | -22.60561 | 214 ft | 126 kts | 4° |
| 2026-05-07 05:33 | 63.97120 | -22.60553 | 166 ft | 103 kts | 359° |
| 2026-05-07 05:33 | 63.97620 | -22.60541 | 176 ft | 55 kts | 0° |
| 2026-05-07 05:33 | 63.97971 | -22.60569 | 173 ft | 37 kts | 349° |
| 2026-05-07 05:34 | 63.98115 | -22.60629 | 174 ft | 19 kts | 341° |
| 2026-05-07 05:34 | 63.98238 | -22.60786 | 169 ft | 22 kts | 331° |
| 2026-05-07 05:34 | 63.98372 | -22.60931 | 168 ft | 22 kts | 349° |
| 2026-05-07 05:34 | 63.98520 | -22.60940 | 172 ft | 21 kts | 358° |
| 2026-05-07 05:35 | 63.98653 | -22.60938 | 170 ft | 16 kts | 1° |
| 2026-05-07 05:35 | 63.98669 | -22.60938 | 170 ft | 3 kts | 1° |
| 2026-05-07 05:35 | 63.98705 | -22.60937 | 169 ft | 7 kts | 359° |
| 2026-05-07 05:35 | 63.98740 | -22.60938 | 169 ft | 2 kts | 359° |
| 2026-05-07 05:36 | 63.98765 | -22.60938 | 166 ft | 5 kts | 359° |
| 2026-05-07 05:36 | 63.98807 | -22.60939 | 169 ft | 7 kts | 360° |
| 2026-05-07 05:36 | 63.98859 | -22.60939 | 171 ft | 7 kts | 360° |
| 2026-05-07 05:36 | 63.98917 | -22.60939 | 173 ft | 10 kts | 360° |
| 2026-05-07 05:37 | 63.99000 | -22.60939 | 174 ft | 15 kts | 0° |
| 2026-05-07 05:37 | 63.99112 | -22.60938 | 169 ft | 11 kts | 0° |
| 2026-05-07 05:37 | 63.99173 | -22.61064 | 164 ft | 17 kts | 268° |
| 2026-05-07 05:37 | 63.99173 | -22.61290 | 159 ft | 17 kts | 273° |
| 2026-05-07 05:38 | 63.99175 | -22.61612 | 152 ft | 20 kts | 271° |
| 2026-05-07 05:38 | 63.99174 | -22.61812 | 147 ft | 12 kts | 269° |
| 2026-05-07 05:38 | 63.99172 | -22.62057 | 145 ft | 19 kts | 269° |
| 2026-05-07 05:38 | 63.99172 | -22.62343 | 145 ft | 14 kts | 270° |
| 2026-05-07 05:39 | 63.99172 | -22.62573 | 145 ft | 12 kts | 270° |
| 2026-05-07 05:39 | 63.99225 | -22.62688 | 145 ft | 13 kts | 341° |
| 2026-05-07 05:39 | 63.99307 | -22.62747 | 145 ft | 9 kts | 356° |
| 2026-05-07 05:39 | 63.99323 | -22.62746 | 145 ft | 2 kts | 1° |
| 2026-05-07 05:40 | 63.99356 | -22.62743 | 145 ft | 8 kts | 8° |
| 2026-05-07 05:40 | 63.99404 | -22.62702 | 145 ft | 3 kts | 23° |
| 2026-05-07 05:40 | 63.99420 | -22.62654 | 145 ft | 6 kts | 81° |
| 2026-05-07 05:40 | 63.99422 | -22.62558 | 145 ft | 5 kts | 90° |
| 2026-05-07 05:41 | 63.99422 | -22.62533 | 145 ft | 2 kts | 91° |
| 2026-05-07 05:41 | 63.99422 | -22.62523 | 145 ft | 1 kts | 90° |
| 2026-05-07 05:41 | 63.99422 | -22.62511 | 145 ft | 1 kts | 90° |
| 2026-05-07 05:41 | 63.99422 | -22.62501 | 145 ft | 0 kts | 90° |
| 2026-05-07 05:42 | 63.99422 | -22.62494 | 145 ft | 1 kts | 90° |
| 2026-05-07 05:42 | 63.99422 | -22.62486 | 145 ft | 0 kts | 89° |
| 2026-05-07 05:42 | 63.99422 | -22.62483 | 145 ft | 0 kts | 89° |
| 2026-05-07 05:42 | 63.99422 | -22.62481 | 145 ft | 0 kts | 89° |